<?xml version="1.0" encoding="UTF-8" standalone="no" ?>
<gpx xmlns="http://www.topografix.com/GPX/1/1" xmlns:xsi="http://www.w3.org/2001/XMLSchema-instance" xsi:schemaLocation="http://www.topografix.com/GPX/1/1 http://www.topografix.com/GPX/1/1/gpx.xsd" version="1.1" creator="VisuGPX - https://www.visugpx.com">
  <metadata>
    <name>LAC BLEU MARTILLAC</name>
    <desc><![CDATA[Rando au départ du lac bleu à travers leognan et martillac]]></desc>
  </metadata>
  <trk>
    <name><![CDATA[La Brède - Léognan - Martillac - 8973 - UtagawaVTT.com]]></name>
    <trkseg>
      <trkpt lat="44.68963" lon="-0.55068">
        <ele>52</ele>
        <time>2014-10-05T07:11:45Z</time>
      </trkpt>
      <trkpt lat="44.68988" lon="-0.55077">
        <ele>52.014248</ele>
        <time>2014-10-05T07:11:51Z</time>
      </trkpt>
      <trkpt lat="44.68989" lon="-0.55082">
        <ele>52.030903</ele>
        <time>2014-10-05T07:11:52Z</time>
      </trkpt>
      <trkpt lat="44.68989" lon="-0.55087">
        <ele>52.0453</ele>
        <time>2014-10-05T07:11:53Z</time>
      </trkpt>
      <trkpt lat="44.68987" lon="-0.55092">
        <ele>52.039326</ele>
        <time>2014-10-05T07:11:54Z</time>
      </trkpt>
      <trkpt lat="44.68978" lon="-0.55102">
        <ele>52</ele>
        <time>2014-10-05T07:11:57Z</time>
      </trkpt>
      <trkpt lat="44.68956" lon="-0.55133">
        <ele>52</ele>
        <time>2014-10-05T07:12:04Z</time>
      </trkpt>
      <trkpt lat="44.68941" lon="-0.5516">
        <ele>52</ele>
        <time>2014-10-05T07:12:09Z</time>
      </trkpt>
      <trkpt lat="44.6889" lon="-0.55279">
        <ele>51.613865</ele>
        <time>2014-10-05T07:12:25Z</time>
      </trkpt>
      <trkpt lat="44.68861" lon="-0.55338">
        <ele>50.635624</ele>
        <time>2014-10-05T07:12:33Z</time>
      </trkpt>
      <trkpt lat="44.68853" lon="-0.55349">
        <ele>50.456875</ele>
        <time>2014-10-05T07:12:35Z</time>
      </trkpt>
      <trkpt lat="44.68842" lon="-0.55375">
        <ele>50.032501</ele>
        <time>2014-10-05T07:12:39Z</time>
      </trkpt>
      <trkpt lat="44.68825" lon="-0.55397">
        <ele>50.33625</ele>
        <time>2014-10-05T07:12:46Z</time>
      </trkpt>
      <trkpt lat="44.68819" lon="-0.5541">
        <ele>50.536251</ele>
        <time>2014-10-05T07:12:49Z</time>
      </trkpt>
      <trkpt lat="44.6881" lon="-0.55437">
        <ele>50.970627</ele>
        <time>2014-10-05T07:12:54Z</time>
      </trkpt>
      <trkpt lat="44.68756" lon="-0.55625">
        <ele>52</ele>
        <time>2014-10-05T07:13:29Z</time>
      </trkpt>
      <trkpt lat="44.68728" lon="-0.55689">
        <ele>52.029625</ele>
        <time>2014-10-05T07:13:44Z</time>
      </trkpt>
      <trkpt lat="44.68715" lon="-0.55717">
        <ele>52.211346</ele>
        <time>2014-10-05T07:13:50Z</time>
      </trkpt>
      <trkpt lat="44.68709" lon="-0.55726">
        <ele>52.200726</ele>
        <time>2014-10-05T07:13:52Z</time>
      </trkpt>
      <trkpt lat="44.68682" lon="-0.5576">
        <ele>52.143051</ele>
        <time>2014-10-05T07:14:00Z</time>
      </trkpt>
      <trkpt lat="44.68678" lon="-0.55763">
        <ele>52.158443</ele>
        <time>2014-10-05T07:14:01Z</time>
      </trkpt>
      <trkpt lat="44.6866" lon="-0.55771">
        <ele>52.092533</ele>
        <time>2014-10-05T07:14:05Z</time>
      </trkpt>
      <trkpt lat="44.68641" lon="-0.55778">
        <ele>52</ele>
        <time>2014-10-05T07:14:09Z</time>
      </trkpt>
      <trkpt lat="44.68623" lon="-0.5579">
        <ele>52</ele>
        <time>2014-10-05T07:14:13Z</time>
      </trkpt>
      <trkpt lat="44.68615" lon="-0.55799">
        <ele>52</ele>
        <time>2014-10-05T07:14:15Z</time>
      </trkpt>
      <trkpt lat="44.68591" lon="-0.5584">
        <ele>51.34037</ele>
        <time>2014-10-05T07:14:23Z</time>
      </trkpt>
      <trkpt lat="44.68584" lon="-0.55849">
        <ele>51.184105</ele>
        <time>2014-10-05T07:14:25Z</time>
      </trkpt>
      <trkpt lat="44.6857" lon="-0.55874">
        <ele>50.92371</ele>
        <time>2014-10-05T07:14:30Z</time>
      </trkpt>
      <trkpt lat="44.68568" lon="-0.5588">
        <ele>50.851536</ele>
        <time>2014-10-05T07:14:31Z</time>
      </trkpt>
      <trkpt lat="44.68567" lon="-0.55886">
        <ele>50.769821</ele>
        <time>2014-10-05T07:14:32Z</time>
      </trkpt>
      <trkpt lat="44.68567" lon="-0.55893">
        <ele>50.685944</ele>
        <time>2014-10-05T07:14:33Z</time>
      </trkpt>
      <trkpt lat="44.68568" lon="-0.55908">
        <ele>50.530827</ele>
        <time>2014-10-05T07:14:35Z</time>
      </trkpt>
      <trkpt lat="44.68569" lon="-0.55924">
        <ele>50.367748</ele>
        <time>2014-10-05T07:14:37Z</time>
      </trkpt>
      <trkpt lat="44.68561" lon="-0.55949">
        <ele>50.1325</ele>
        <time>2014-10-05T07:14:41Z</time>
      </trkpt>
      <trkpt lat="44.68559" lon="-0.55954">
        <ele>50.110001</ele>
        <time>2014-10-05T07:14:42Z</time>
      </trkpt>
      <trkpt lat="44.68553" lon="-0.55975">
        <ele>50</ele>
        <time>2014-10-05T07:14:46Z</time>
      </trkpt>
      <trkpt lat="44.68549" lon="-0.55992">
        <ele>50</ele>
        <time>2014-10-05T07:14:49Z</time>
      </trkpt>
      <trkpt lat="44.68534" lon="-0.56042">
        <ele>50.47377</ele>
        <time>2014-10-05T07:14:58Z</time>
      </trkpt>
      <trkpt lat="44.68506" lon="-0.56168">
        <ele>52.815624</ele>
        <time>2014-10-05T07:15:20Z</time>
      </trkpt>
      <trkpt lat="44.68488" lon="-0.56236">
        <ele>52.692501</ele>
        <time>2014-10-05T07:15:33Z</time>
      </trkpt>
      <trkpt lat="44.68473" lon="-0.56306">
        <ele>51.783123</ele>
        <time>2014-10-05T07:15:47Z</time>
      </trkpt>
      <trkpt lat="44.68463" lon="-0.56357">
        <ele>50.74831</ele>
        <time>2014-10-05T07:15:57Z</time>
      </trkpt>
      <trkpt lat="44.68447" lon="-0.56418">
        <ele>47.70261</ele>
        <time>2014-10-05T07:16:06Z</time>
      </trkpt>
      <trkpt lat="44.68435" lon="-0.56473">
        <ele>44.320049</ele>
        <time>2014-10-05T07:16:18Z</time>
      </trkpt>
      <trkpt lat="44.68427" lon="-0.56518">
        <ele>42.578125</ele>
        <time>2014-10-05T07:16:31Z</time>
      </trkpt>
      <trkpt lat="44.68428" lon="-0.56531">
        <ele>42.434139</ele>
        <time>2014-10-05T07:16:44Z</time>
      </trkpt>
      <trkpt lat="44.68448" lon="-0.56557">
        <ele>42.935398</ele>
        <time>2014-10-05T07:16:57Z</time>
      </trkpt>
      <trkpt lat="44.68476" lon="-0.56576">
        <ele>44.955311</ele>
        <time>2014-10-05T07:17:07Z</time>
      </trkpt>
      <trkpt lat="44.68492" lon="-0.56591">
        <ele>45.897839</ele>
        <time>2014-10-05T07:17:13Z</time>
      </trkpt>
      <trkpt lat="44.68496" lon="-0.56621">
        <ele>45.535912</ele>
        <time>2014-10-05T07:17:23Z</time>
      </trkpt>
      <trkpt lat="44.68494" lon="-0.56625">
        <ele>45.232773</ele>
        <time>2014-10-05T07:17:36Z</time>
      </trkpt>
      <trkpt lat="44.68463" lon="-0.56638">
        <ele>43.177689</ele>
        <time>2014-10-05T07:17:47Z</time>
      </trkpt>
      <trkpt lat="44.68431" lon="-0.56656">
        <ele>42.616875</ele>
        <time>2014-10-05T07:17:57Z</time>
      </trkpt>
      <trkpt lat="44.68406" lon="-0.56683">
        <ele>43</ele>
        <time>2014-10-05T07:18:05Z</time>
      </trkpt>
      <trkpt lat="44.68372" lon="-0.56711">
        <ele>42.714039</ele>
        <time>2014-10-05T07:18:16Z</time>
      </trkpt>
      <trkpt lat="44.68296" lon="-0.56791">
        <ele>45.120625</ele>
        <time>2014-10-05T07:18:43Z</time>
      </trkpt>
      <trkpt lat="44.68265" lon="-0.56818">
        <ele>46.240623</ele>
        <time>2014-10-05T07:19:09Z</time>
      </trkpt>
      <trkpt lat="44.68192" lon="-0.56861">
        <ele>47.583748</ele>
        <time>2014-10-05T07:19:55Z</time>
      </trkpt>
      <trkpt lat="44.68078" lon="-0.56917">
        <ele>50.07375</ele>
        <time>2014-10-05T07:20:29Z</time>
      </trkpt>
      <trkpt lat="44.6803" lon="-0.56942">
        <ele>51.607693</ele>
        <time>2014-10-05T07:20:45Z</time>
      </trkpt>
      <trkpt lat="44.67972" lon="-0.56975">
        <ele>53.742249</ele>
        <time>2014-10-05T07:21:02Z</time>
      </trkpt>
      <trkpt lat="44.67927" lon="-0.5699">
        <ele>55.451672</ele>
        <time>2014-10-05T07:21:17Z</time>
      </trkpt>
      <trkpt lat="44.679" lon="-0.56964">
        <ele>55.944153</ele>
        <time>2014-10-05T07:21:28Z</time>
      </trkpt>
      <trkpt lat="44.67819" lon="-0.56999">
        <ele>58.278751</ele>
        <time>2014-10-05T07:21:56Z</time>
      </trkpt>
      <trkpt lat="44.67706" lon="-0.57064">
        <ele>59.538189</ele>
        <time>2014-10-05T07:22:32Z</time>
      </trkpt>
      <trkpt lat="44.67709" lon="-0.571">
        <ele>59.877499</ele>
        <time>2014-10-05T07:22:40Z</time>
      </trkpt>
      <trkpt lat="44.67722" lon="-0.57144">
        <ele>60</ele>
        <time>2014-10-05T07:22:48Z</time>
      </trkpt>
      <trkpt lat="44.67728" lon="-0.57167">
        <ele>60</ele>
        <time>2014-10-05T07:22:52Z</time>
      </trkpt>
      <trkpt lat="44.67747" lon="-0.57234">
        <ele>59.6675</ele>
        <time>2014-10-05T07:23:03Z</time>
      </trkpt>
      <trkpt lat="44.67758" lon="-0.57276">
        <ele>59.002331</ele>
        <time>2014-10-05T07:23:10Z</time>
      </trkpt>
      <trkpt lat="44.67796" lon="-0.57416">
        <ele>57.82</ele>
        <time>2014-10-05T07:23:32Z</time>
      </trkpt>
      <trkpt lat="44.67822" lon="-0.57497">
        <ele>56.832806</ele>
        <time>2014-10-05T07:23:46Z</time>
      </trkpt>
      <trkpt lat="44.67833" lon="-0.57559">
        <ele>56.528984</ele>
        <time>2014-10-05T07:23:58Z</time>
      </trkpt>
      <trkpt lat="44.67836" lon="-0.57594">
        <ele>56.027157</ele>
        <time>2014-10-05T07:24:03Z</time>
      </trkpt>
      <trkpt lat="44.67837" lon="-0.5768">
        <ele>55.688038</ele>
        <time>2014-10-05T07:24:17Z</time>
      </trkpt>
      <trkpt lat="44.67834" lon="-0.57798">
        <ele>54.07</ele>
        <time>2014-10-05T07:24:34Z</time>
      </trkpt>
      <trkpt lat="44.67835" lon="-0.5791">
        <ele>53.165623</ele>
        <time>2014-10-05T07:24:51Z</time>
      </trkpt>
      <trkpt lat="44.67837" lon="-0.58029">
        <ele>53.671471</ele>
        <time>2014-10-05T07:25:08Z</time>
      </trkpt>
      <trkpt lat="44.67837" lon="-0.58157">
        <ele>54</ele>
        <time>2014-10-05T07:25:26Z</time>
      </trkpt>
      <trkpt lat="44.67838" lon="-0.58263">
        <ele>54.81575</ele>
        <time>2014-10-05T07:25:41Z</time>
      </trkpt>
      <trkpt lat="44.67837" lon="-0.5836">
        <ele>55.5275</ele>
        <time>2014-10-05T07:25:56Z</time>
      </trkpt>
      <trkpt lat="44.67839" lon="-0.58475">
        <ele>55.419998</ele>
        <time>2014-10-05T07:26:13Z</time>
      </trkpt>
      <trkpt lat="44.6784" lon="-0.58708">
        <ele>56</ele>
        <time>2014-10-05T07:26:49Z</time>
      </trkpt>
      <trkpt lat="44.67843" lon="-0.58806">
        <ele>56.137501</ele>
        <time>2014-10-05T07:27:03Z</time>
      </trkpt>
      <trkpt lat="44.6785" lon="-0.58882">
        <ele>56</ele>
        <time>2014-10-05T07:27:15Z</time>
      </trkpt>
      <trkpt lat="44.67855" lon="-0.58917">
        <ele>56</ele>
        <time>2014-10-05T07:27:21Z</time>
      </trkpt>
      <trkpt lat="44.6786" lon="-0.58942">
        <ele>56</ele>
        <time>2014-10-05T07:27:25Z</time>
      </trkpt>
      <trkpt lat="44.67878" lon="-0.58994">
        <ele>56</ele>
        <time>2014-10-05T07:27:34Z</time>
      </trkpt>
      <trkpt lat="44.67912" lon="-0.59084">
        <ele>56</ele>
        <time>2014-10-05T07:27:50Z</time>
      </trkpt>
      <trkpt lat="44.6794" lon="-0.59151">
        <ele>56.451405</ele>
        <time>2014-10-05T07:28:02Z</time>
      </trkpt>
      <trkpt lat="44.67994" lon="-0.593">
        <ele>56.435486</ele>
        <time>2014-10-05T07:28:31Z</time>
      </trkpt>
      <trkpt lat="44.68021" lon="-0.59372">
        <ele>56.836754</ele>
        <time>2014-10-05T07:28:45Z</time>
      </trkpt>
      <trkpt lat="44.68048" lon="-0.59445">
        <ele>57</ele>
        <time>2014-10-05T07:28:58Z</time>
      </trkpt>
      <trkpt lat="44.68095" lon="-0.59578">
        <ele>57</ele>
        <time>2014-10-05T07:29:22Z</time>
      </trkpt>
      <trkpt lat="44.68101" lon="-0.59605">
        <ele>56.919998</ele>
        <time>2014-10-05T07:29:27Z</time>
      </trkpt>
      <trkpt lat="44.68123" lon="-0.59686">
        <ele>56.94772</ele>
        <time>2014-10-05T07:29:42Z</time>
      </trkpt>
      <trkpt lat="44.68126" lon="-0.59751">
        <ele>57</ele>
        <time>2014-10-05T07:29:55Z</time>
      </trkpt>
      <trkpt lat="44.68138" lon="-0.5989">
        <ele>57</ele>
        <time>2014-10-05T07:30:18Z</time>
      </trkpt>
      <trkpt lat="44.68148" lon="-0.59979">
        <ele>57.534374</ele>
        <time>2014-10-05T07:30:33Z</time>
      </trkpt>
      <trkpt lat="44.68151" lon="-0.60004">
        <ele>57.919998</ele>
        <time>2014-10-05T07:30:37Z</time>
      </trkpt>
      <trkpt lat="44.68157" lon="-0.60071">
        <ele>58</ele>
        <time>2014-10-05T07:30:47Z</time>
      </trkpt>
      <trkpt lat="44.68162" lon="-0.60099">
        <ele>58</ele>
        <time>2014-10-05T07:30:51Z</time>
      </trkpt>
      <trkpt lat="44.68175" lon="-0.60224">
        <ele>58</ele>
        <time>2014-10-05T07:31:09Z</time>
      </trkpt>
      <trkpt lat="44.68178" lon="-0.60238">
        <ele>58</ele>
        <time>2014-10-05T07:31:11Z</time>
      </trkpt>
      <trkpt lat="44.68187" lon="-0.60324">
        <ele>58</ele>
        <time>2014-10-05T07:31:26Z</time>
      </trkpt>
      <trkpt lat="44.68186" lon="-0.60331">
        <ele>58</ele>
        <time>2014-10-05T07:31:28Z</time>
      </trkpt>
      <trkpt lat="44.68191" lon="-0.60338">
        <ele>58</ele>
        <time>2014-10-05T07:31:34Z</time>
      </trkpt>
      <trkpt lat="44.682" lon="-0.60337">
        <ele>58</ele>
        <time>2014-10-05T07:31:36Z</time>
      </trkpt>
      <trkpt lat="44.68283" lon="-0.60349">
        <ele>58</ele>
        <time>2014-10-05T07:31:53Z</time>
      </trkpt>
      <trkpt lat="44.6829" lon="-0.60353">
        <ele>58</ele>
        <time>2014-10-05T07:31:55Z</time>
      </trkpt>
      <trkpt lat="44.68293" lon="-0.60357">
        <ele>58</ele>
        <time>2014-10-05T07:31:56Z</time>
      </trkpt>
      <trkpt lat="44.68294" lon="-0.60363">
        <ele>58</ele>
        <time>2014-10-05T07:31:57Z</time>
      </trkpt>
      <trkpt lat="44.68294" lon="-0.6037">
        <ele>58</ele>
        <time>2014-10-05T07:31:58Z</time>
      </trkpt>
      <trkpt lat="44.6829" lon="-0.60452">
        <ele>58</ele>
        <time>2014-10-05T07:32:09Z</time>
      </trkpt>
      <trkpt lat="44.68283" lon="-0.60531">
        <ele>58.177502</ele>
        <time>2014-10-05T07:32:20Z</time>
      </trkpt>
      <trkpt lat="44.68276" lon="-0.6063">
        <ele>59</ele>
        <time>2014-10-05T07:32:34Z</time>
      </trkpt>
      <trkpt lat="44.68259" lon="-0.60862">
        <ele>59</ele>
        <time>2014-10-05T07:33:06Z</time>
      </trkpt>
      <trkpt lat="44.68242" lon="-0.61062">
        <ele>59</ele>
        <time>2014-10-05T07:33:34Z</time>
      </trkpt>
      <trkpt lat="44.68205" lon="-0.61449">
        <ele>59.522499</ele>
        <time>2014-10-05T07:34:25Z</time>
      </trkpt>
      <trkpt lat="44.68188" lon="-0.61558">
        <ele>59.918625</ele>
        <time>2014-10-05T07:34:40Z</time>
      </trkpt>
      <trkpt lat="44.68175" lon="-0.61637">
        <ele>60</ele>
        <time>2014-10-05T07:34:52Z</time>
      </trkpt>
      <trkpt lat="44.68176" lon="-0.61643">
        <ele>60</ele>
        <time>2014-10-05T07:34:53Z</time>
      </trkpt>
      <trkpt lat="44.68179" lon="-0.61648">
        <ele>60</ele>
        <time>2014-10-05T07:34:54Z</time>
      </trkpt>
      <trkpt lat="44.68191" lon="-0.6166">
        <ele>60</ele>
        <time>2014-10-05T07:34:57Z</time>
      </trkpt>
      <trkpt lat="44.6827" lon="-0.61734">
        <ele>59.225739</ele>
        <time>2014-10-05T07:35:15Z</time>
      </trkpt>
      <trkpt lat="44.68402" lon="-0.61863">
        <ele>59</ele>
        <time>2014-10-05T07:35:49Z</time>
      </trkpt>
      <trkpt lat="44.68479" lon="-0.61938">
        <ele>59</ele>
        <time>2014-10-05T07:36:10Z</time>
      </trkpt>
      <trkpt lat="44.68557" lon="-0.62015">
        <ele>59</ele>
        <time>2014-10-05T07:36:29Z</time>
      </trkpt>
      <trkpt lat="44.68606" lon="-0.62069">
        <ele>59</ele>
        <time>2014-10-05T07:36:43Z</time>
      </trkpt>
      <trkpt lat="44.6867" lon="-0.62131">
        <ele>58.954052</ele>
        <time>2014-10-05T07:36:59Z</time>
      </trkpt>
      <trkpt lat="44.68692" lon="-0.62155">
        <ele>58.591648</ele>
        <time>2014-10-05T07:37:26Z</time>
      </trkpt>
      <trkpt lat="44.68744" lon="-0.62204">
        <ele>58</ele>
        <time>2014-10-05T07:37:40Z</time>
      </trkpt>
      <trkpt lat="44.68798" lon="-0.62257">
        <ele>58</ele>
        <time>2014-10-05T07:37:53Z</time>
      </trkpt>
      <trkpt lat="44.68927" lon="-0.62377">
        <ele>58</ele>
        <time>2014-10-05T07:38:24Z</time>
      </trkpt>
      <trkpt lat="44.69004" lon="-0.62452">
        <ele>58</ele>
        <time>2014-10-05T07:38:43Z</time>
      </trkpt>
      <trkpt lat="44.69123" lon="-0.62565">
        <ele>57</ele>
        <time>2014-10-05T07:39:13Z</time>
      </trkpt>
      <trkpt lat="44.69171" lon="-0.62608">
        <ele>57</ele>
        <time>2014-10-05T07:39:27Z</time>
      </trkpt>
      <trkpt lat="44.6923" lon="-0.62665">
        <ele>56.02169</ele>
        <time>2014-10-05T07:39:41Z</time>
      </trkpt>
      <trkpt lat="44.69314" lon="-0.62744">
        <ele>54.652084</ele>
        <time>2014-10-05T07:39:59Z</time>
      </trkpt>
      <trkpt lat="44.69362" lon="-0.62785">
        <ele>54</ele>
        <time>2014-10-05T07:40:09Z</time>
      </trkpt>
      <trkpt lat="44.69469" lon="-0.6287">
        <ele>53</ele>
        <time>2014-10-05T07:40:31Z</time>
      </trkpt>
      <trkpt lat="44.69502" lon="-0.62892">
        <ele>53</ele>
        <time>2014-10-05T07:40:37Z</time>
      </trkpt>
      <trkpt lat="44.69546" lon="-0.62925">
        <ele>52.856747</ele>
        <time>2014-10-05T07:40:46Z</time>
      </trkpt>
      <trkpt lat="44.69582" lon="-0.62955">
        <ele>52.525295</ele>
        <time>2014-10-05T07:40:54Z</time>
      </trkpt>
      <trkpt lat="44.69669" lon="-0.63022">
        <ele>54.973423</ele>
        <time>2014-10-05T07:41:15Z</time>
      </trkpt>
      <trkpt lat="44.69699" lon="-0.63044">
        <ele>55</ele>
        <time>2014-10-05T07:41:22Z</time>
      </trkpt>
      <trkpt lat="44.69715" lon="-0.63058">
        <ele>55</ele>
        <time>2014-10-05T07:41:26Z</time>
      </trkpt>
      <trkpt lat="44.69749" lon="-0.63083">
        <ele>55</ele>
        <time>2014-10-05T07:41:34Z</time>
      </trkpt>
      <trkpt lat="44.69777" lon="-0.63089">
        <ele>55</ele>
        <time>2014-10-05T07:41:42Z</time>
      </trkpt>
      <trkpt lat="44.69819" lon="-0.63063">
        <ele>55</ele>
        <time>2014-10-05T07:41:53Z</time>
      </trkpt>
      <trkpt lat="44.69827" lon="-0.63059">
        <ele>55</ele>
        <time>2014-10-05T07:41:55Z</time>
      </trkpt>
      <trkpt lat="44.69938" lon="-0.62989">
        <ele>55</ele>
        <time>2014-10-05T07:42:21Z</time>
      </trkpt>
      <trkpt lat="44.69974" lon="-0.62962">
        <ele>55</ele>
        <time>2014-10-05T07:42:32Z</time>
      </trkpt>
      <trkpt lat="44.69997" lon="-0.62943">
        <ele>54.791775</ele>
        <time>2014-10-05T07:42:39Z</time>
      </trkpt>
      <trkpt lat="44.69995" lon="-0.62921">
        <ele>54.53159</ele>
        <time>2014-10-05T07:42:46Z</time>
      </trkpt>
      <trkpt lat="44.70003" lon="-0.62892">
        <ele>54.113644</ele>
        <time>2014-10-05T07:42:54Z</time>
      </trkpt>
      <trkpt lat="44.7001" lon="-0.62871">
        <ele>53.924118</ele>
        <time>2014-10-05T07:42:59Z</time>
      </trkpt>
      <trkpt lat="44.69995" lon="-0.62803">
        <ele>53.710743</ele>
        <time>2014-10-05T07:43:12Z</time>
      </trkpt>
      <trkpt lat="44.69985" lon="-0.62762">
        <ele>53.269516</ele>
        <time>2014-10-05T07:43:21Z</time>
      </trkpt>
      <trkpt lat="44.69976" lon="-0.62703">
        <ele>52.257843</ele>
        <time>2014-10-05T07:43:32Z</time>
      </trkpt>
      <trkpt lat="44.69963" lon="-0.62648">
        <ele>49.778099</ele>
        <time>2014-10-05T07:43:43Z</time>
      </trkpt>
      <trkpt lat="44.69964" lon="-0.62633">
        <ele>49.001087</ele>
        <time>2014-10-05T07:43:46Z</time>
      </trkpt>
      <trkpt lat="44.69989" lon="-0.62606">
        <ele>47.016846</ele>
        <time>2014-10-05T07:43:58Z</time>
      </trkpt>
      <trkpt lat="44.69997" lon="-0.626">
        <ele>46.615452</ele>
        <time>2014-10-05T07:44:01Z</time>
      </trkpt>
      <trkpt lat="44.70005" lon="-0.6259">
        <ele>46.085625</ele>
        <time>2014-10-05T07:44:05Z</time>
      </trkpt>
      <trkpt lat="44.70008" lon="-0.6259">
        <ele>46.080002</ele>
        <time>2014-10-05T07:44:07Z</time>
      </trkpt>
      <trkpt lat="44.70033" lon="-0.62608">
        <ele>46.903126</ele>
        <time>2014-10-05T07:44:17Z</time>
      </trkpt>
      <trkpt lat="44.70064" lon="-0.62591">
        <ele>46.012501</ele>
        <time>2014-10-05T07:44:27Z</time>
      </trkpt>
      <trkpt lat="44.70071" lon="-0.6257">
        <ele>45.009377</ele>
        <time>2014-10-05T07:44:32Z</time>
      </trkpt>
      <trkpt lat="44.7007" lon="-0.62544">
        <ele>45</ele>
        <time>2014-10-05T07:44:39Z</time>
      </trkpt>
      <trkpt lat="44.7009" lon="-0.62526">
        <ele>45.012798</ele>
        <time>2014-10-05T07:44:47Z</time>
      </trkpt>
      <trkpt lat="44.70105" lon="-0.62505">
        <ele>45.045303</ele>
        <time>2014-10-05T07:44:53Z</time>
      </trkpt>
      <trkpt lat="44.70119" lon="-0.6248">
        <ele>45.176937</ele>
        <time>2014-10-05T07:45:01Z</time>
      </trkpt>
      <trkpt lat="44.7013" lon="-0.62452">
        <ele>45.127617</ele>
        <time>2014-10-05T07:45:10Z</time>
      </trkpt>
      <trkpt lat="44.70139" lon="-0.62423">
        <ele>45.427151</ele>
        <time>2014-10-05T07:45:16Z</time>
      </trkpt>
      <trkpt lat="44.70175" lon="-0.62406">
        <ele>45.873249</ele>
        <time>2014-10-05T07:45:27Z</time>
      </trkpt>
      <trkpt lat="44.70182" lon="-0.62378">
        <ele>45.034313</ele>
        <time>2014-10-05T07:45:34Z</time>
      </trkpt>
      <trkpt lat="44.70212" lon="-0.6233">
        <ele>45.140568</ele>
        <time>2014-10-05T07:45:50Z</time>
      </trkpt>
      <trkpt lat="44.70224" lon="-0.62321">
        <ele>45.00983</ele>
        <time>2014-10-05T07:45:56Z</time>
      </trkpt>
      <trkpt lat="44.70237" lon="-0.62332">
        <ele>45.279373</ele>
        <time>2014-10-05T07:46:03Z</time>
      </trkpt>
      <trkpt lat="44.70242" lon="-0.62334">
        <ele>45.348751</ele>
        <time>2014-10-05T07:46:05Z</time>
      </trkpt>
      <trkpt lat="44.70264" lon="-0.62362">
        <ele>46.605</ele>
        <time>2014-10-05T07:46:14Z</time>
      </trkpt>
      <trkpt lat="44.70265" lon="-0.62364">
        <ele>46.715626</ele>
        <time>2014-10-05T07:46:15Z</time>
      </trkpt>
      <trkpt lat="44.70279" lon="-0.62382">
        <ele>47.22797</ele>
        <time>2014-10-05T07:46:24Z</time>
      </trkpt>
      <trkpt lat="44.70293" lon="-0.62387">
        <ele>46.563282</ele>
        <time>2014-10-05T07:46:29Z</time>
      </trkpt>
      <trkpt lat="44.70295" lon="-0.62393">
        <ele>46.574848</ele>
        <time>2014-10-05T07:46:32Z</time>
      </trkpt>
      <trkpt lat="44.70323" lon="-0.62421">
        <ele>47.030182</ele>
        <time>2014-10-05T07:47:17Z</time>
      </trkpt>
      <trkpt lat="44.70334" lon="-0.62428">
        <ele>47.400517</ele>
        <time>2014-10-05T07:47:22Z</time>
      </trkpt>
      <trkpt lat="44.70341" lon="-0.62425">
        <ele>47.107948</ele>
        <time>2014-10-05T07:47:32Z</time>
      </trkpt>
      <trkpt lat="44.70344" lon="-0.62415">
        <ele>46.376926</ele>
        <time>2014-10-05T07:47:42Z</time>
      </trkpt>
      <trkpt lat="44.70366" lon="-0.62406">
        <ele>45.647873</ele>
        <time>2014-10-05T07:47:53Z</time>
      </trkpt>
      <trkpt lat="44.70372" lon="-0.62409">
        <ele>45.911152</ele>
        <time>2014-10-05T07:47:57Z</time>
      </trkpt>
      <trkpt lat="44.70386" lon="-0.6241">
        <ele>46.198601</ele>
        <time>2014-10-05T07:48:09Z</time>
      </trkpt>
      <trkpt lat="44.70392" lon="-0.62409">
        <ele>46.238499</ele>
        <time>2014-10-05T07:48:12Z</time>
      </trkpt>
      <trkpt lat="44.70397" lon="-0.62403">
        <ele>46.00705</ele>
        <time>2014-10-05T07:48:15Z</time>
      </trkpt>
      <trkpt lat="44.70404" lon="-0.62389">
        <ele>45.778618</ele>
        <time>2014-10-05T07:48:20Z</time>
      </trkpt>
      <trkpt lat="44.70421" lon="-0.62369">
        <ele>45.660801</ele>
        <time>2014-10-05T07:48:26Z</time>
      </trkpt>
      <trkpt lat="44.70443" lon="-0.62367">
        <ele>45.813816</ele>
        <time>2014-10-05T07:48:34Z</time>
      </trkpt>
      <trkpt lat="44.70448" lon="-0.62365">
        <ele>45.812283</ele>
        <time>2014-10-05T07:48:37Z</time>
      </trkpt>
      <trkpt lat="44.70455" lon="-0.62369">
        <ele>46.002575</ele>
        <time>2014-10-05T07:48:40Z</time>
      </trkpt>
      <trkpt lat="44.70463" lon="-0.62368">
        <ele>46.042831</ele>
        <time>2014-10-05T07:48:44Z</time>
      </trkpt>
      <trkpt lat="44.70464" lon="-0.62348">
        <ele>45.46191</ele>
        <time>2014-10-05T07:48:52Z</time>
      </trkpt>
      <trkpt lat="44.70474" lon="-0.62321">
        <ele>45.302811</ele>
        <time>2014-10-05T07:49:00Z</time>
      </trkpt>
      <trkpt lat="44.70487" lon="-0.62305">
        <ele>45.313789</ele>
        <time>2014-10-05T07:49:06Z</time>
      </trkpt>
      <trkpt lat="44.70493" lon="-0.62301">
        <ele>45.317623</ele>
        <time>2014-10-05T07:49:08Z</time>
      </trkpt>
      <trkpt lat="44.70503" lon="-0.62281">
        <ele>45.049374</ele>
        <time>2014-10-05T07:49:15Z</time>
      </trkpt>
      <trkpt lat="44.70513" lon="-0.62272">
        <ele>44.97657</ele>
        <time>2014-10-05T07:49:18Z</time>
      </trkpt>
      <trkpt lat="44.70535" lon="-0.6227">
        <ele>44.897099</ele>
        <time>2014-10-05T07:49:25Z</time>
      </trkpt>
      <trkpt lat="44.70549" lon="-0.62267">
        <ele>44.804821</ele>
        <time>2014-10-05T07:49:29Z</time>
      </trkpt>
      <trkpt lat="44.70565" lon="-0.62261">
        <ele>44.810898</ele>
        <time>2014-10-05T07:49:34Z</time>
      </trkpt>
      <trkpt lat="44.70578" lon="-0.62251">
        <ele>44.852722</ele>
        <time>2014-10-05T07:49:39Z</time>
      </trkpt>
      <trkpt lat="44.70594" lon="-0.62256">
        <ele>44.980873</ele>
        <time>2014-10-05T07:49:48Z</time>
      </trkpt>
      <trkpt lat="44.70604" lon="-0.62251">
        <ele>44.861961</ele>
        <time>2014-10-05T07:49:56Z</time>
      </trkpt>
      <trkpt lat="44.70624" lon="-0.62253">
        <ele>44.653358</ele>
        <time>2014-10-05T07:50:05Z</time>
      </trkpt>
      <trkpt lat="44.70629" lon="-0.62252">
        <ele>44.590702</ele>
        <time>2014-10-05T07:50:08Z</time>
      </trkpt>
      <trkpt lat="44.70631" lon="-0.62257">
        <ele>44.622139</ele>
        <time>2014-10-05T07:50:12Z</time>
      </trkpt>
      <trkpt lat="44.7064" lon="-0.62259">
        <ele>44.590626</ele>
        <time>2014-10-05T07:50:15Z</time>
      </trkpt>
      <trkpt lat="44.70649" lon="-0.62268">
        <ele>44.730625</ele>
        <time>2014-10-05T07:50:19Z</time>
      </trkpt>
      <trkpt lat="44.70658" lon="-0.62282">
        <ele>44.944374</ele>
        <time>2014-10-05T07:50:22Z</time>
      </trkpt>
      <trkpt lat="44.70694" lon="-0.62304">
        <ele>45.265625</ele>
        <time>2014-10-05T07:50:30Z</time>
      </trkpt>
      <trkpt lat="44.70713" lon="-0.62328">
        <ele>45.619373</ele>
        <time>2014-10-05T07:50:37Z</time>
      </trkpt>
      <trkpt lat="44.70718" lon="-0.62339">
        <ele>45.797501</ele>
        <time>2014-10-05T07:50:41Z</time>
      </trkpt>
      <trkpt lat="44.70725" lon="-0.62363">
        <ele>46.173126</ele>
        <time>2014-10-05T07:50:49Z</time>
      </trkpt>
      <trkpt lat="44.70731" lon="-0.62378">
        <ele>46.397499</ele>
        <time>2014-10-05T07:51:19Z</time>
      </trkpt>
      <trkpt lat="44.70727" lon="-0.62406">
        <ele>46.840626</ele>
        <time>2014-10-05T07:51:34Z</time>
      </trkpt>
      <trkpt lat="44.70726" lon="-0.62422">
        <ele>47</ele>
        <time>2014-10-05T07:51:45Z</time>
      </trkpt>
      <trkpt lat="44.70716" lon="-0.62489">
        <ele>47.18</ele>
        <time>2014-10-05T07:52:08Z</time>
      </trkpt>
      <trkpt lat="44.70807" lon="-0.62428">
        <ele>47.117039</ele>
        <time>2014-10-05T07:52:48Z</time>
      </trkpt>
      <trkpt lat="44.70841" lon="-0.62407">
        <ele>47.477734</ele>
        <time>2014-10-05T07:52:58Z</time>
      </trkpt>
      <trkpt lat="44.70877" lon="-0.62387">
        <ele>47.664326</ele>
        <time>2014-10-05T07:53:08Z</time>
      </trkpt>
      <trkpt lat="44.70923" lon="-0.62364">
        <ele>48</ele>
        <time>2014-10-05T07:53:21Z</time>
      </trkpt>
      <trkpt lat="44.70933" lon="-0.62357">
        <ele>47.963726</ele>
        <time>2014-10-05T07:53:24Z</time>
      </trkpt>
      <trkpt lat="44.70981" lon="-0.62311">
        <ele>48</ele>
        <time>2014-10-05T07:53:38Z</time>
      </trkpt>
      <trkpt lat="44.71034" lon="-0.62262">
        <ele>48</ele>
        <time>2014-10-05T07:53:52Z</time>
      </trkpt>
      <trkpt lat="44.7105" lon="-0.62244">
        <ele>47.837502</ele>
        <time>2014-10-05T07:53:57Z</time>
      </trkpt>
      <trkpt lat="44.71062" lon="-0.62232">
        <ele>47.352188</ele>
        <time>2014-10-05T07:54:00Z</time>
      </trkpt>
      <trkpt lat="44.71085" lon="-0.62206">
        <ele>46.98172</ele>
        <time>2014-10-05T07:54:07Z</time>
      </trkpt>
      <trkpt lat="44.71101" lon="-0.62194">
        <ele>46.517368</ele>
        <time>2014-10-05T07:54:15Z</time>
      </trkpt>
      <trkpt lat="44.71096" lon="-0.62221">
        <ele>46.754162</ele>
        <time>2014-10-05T07:54:25Z</time>
      </trkpt>
      <trkpt lat="44.71064" lon="-0.62297">
        <ele>47.474998</ele>
        <time>2014-10-05T07:54:48Z</time>
      </trkpt>
      <trkpt lat="44.71045" lon="-0.62349">
        <ele>47.052734</ele>
        <time>2014-10-05T07:55:11Z</time>
      </trkpt>
      <trkpt lat="44.71043" lon="-0.62355">
        <ele>47.023174</ele>
        <time>2014-10-05T07:55:44Z</time>
      </trkpt>
      <trkpt lat="44.71041" lon="-0.62356">
        <ele>47.096676</ele>
        <time>2014-10-05T07:56:31Z</time>
      </trkpt>
      <trkpt lat="44.7104" lon="-0.62361">
        <ele>47.063499</ele>
        <time>2014-10-05T07:56:42Z</time>
      </trkpt>
      <trkpt lat="44.71035" lon="-0.62373">
        <ele>46.949436</ele>
        <time>2014-10-05T07:56:50Z</time>
      </trkpt>
      <trkpt lat="44.71029" lon="-0.62392">
        <ele>46.549938</ele>
        <time>2014-10-05T07:57:00Z</time>
      </trkpt>
      <trkpt lat="44.7102" lon="-0.62416">
        <ele>46.167786</ele>
        <time>2014-10-05T07:57:13Z</time>
      </trkpt>
      <trkpt lat="44.70998" lon="-0.62469">
        <ele>45.910267</ele>
        <time>2014-10-05T07:57:32Z</time>
      </trkpt>
      <trkpt lat="44.7098" lon="-0.62491">
        <ele>46.481308</ele>
        <time>2014-10-05T07:57:57Z</time>
      </trkpt>
      <trkpt lat="44.70976" lon="-0.62498">
        <ele>46.533127</ele>
        <time>2014-10-05T07:58:07Z</time>
      </trkpt>
      <trkpt lat="44.70965" lon="-0.62533">
        <ele>46.41375</ele>
        <time>2014-10-05T07:58:34Z</time>
      </trkpt>
      <trkpt lat="44.70955" lon="-0.6256">
        <ele>46.601875</ele>
        <time>2014-10-05T07:58:56Z</time>
      </trkpt>
      <trkpt lat="44.70936" lon="-0.626">
        <ele>47.889999</ele>
        <time>2014-10-05T07:59:09Z</time>
      </trkpt>
      <trkpt lat="44.70923" lon="-0.62627">
        <ele>48.616249</ele>
        <time>2014-10-05T07:59:19Z</time>
      </trkpt>
      <trkpt lat="44.70905" lon="-0.62665">
        <ele>49.610001</ele>
        <time>2014-10-05T07:59:32Z</time>
      </trkpt>
      <trkpt lat="44.70889" lon="-0.62704">
        <ele>49.927525</ele>
        <time>2014-10-05T07:59:45Z</time>
      </trkpt>
      <trkpt lat="44.70861" lon="-0.62766">
        <ele>50</ele>
        <time>2014-10-05T08:00:07Z</time>
      </trkpt>
      <trkpt lat="44.70855" lon="-0.62783">
        <ele>50</ele>
        <time>2014-10-05T08:00:13Z</time>
      </trkpt>
      <trkpt lat="44.70846" lon="-0.6282">
        <ele>50</ele>
        <time>2014-10-05T08:00:25Z</time>
      </trkpt>
      <trkpt lat="44.70815" lon="-0.62881">
        <ele>49.895798</ele>
        <time>2014-10-05T08:00:56Z</time>
      </trkpt>
      <trkpt lat="44.708" lon="-0.62919">
        <ele>49.993164</ele>
        <time>2014-10-05T08:01:07Z</time>
      </trkpt>
      <trkpt lat="44.70805" lon="-0.6293">
        <ele>49.855</ele>
        <time>2014-10-05T08:01:17Z</time>
      </trkpt>
      <trkpt lat="44.70839" lon="-0.62924">
        <ele>49.148937</ele>
        <time>2014-10-05T08:01:31Z</time>
      </trkpt>
      <trkpt lat="44.70851" lon="-0.62918">
        <ele>48.976875</ele>
        <time>2014-10-05T08:01:36Z</time>
      </trkpt>
      <trkpt lat="44.7087" lon="-0.62916">
        <ele>48.625626</ele>
        <time>2014-10-05T08:01:42Z</time>
      </trkpt>
      <trkpt lat="44.70909" lon="-0.62915">
        <ele>47.917473</ele>
        <time>2014-10-05T08:01:53Z</time>
      </trkpt>
      <trkpt lat="44.7095" lon="-0.62909">
        <ele>47.061249</ele>
        <time>2014-10-05T08:02:07Z</time>
      </trkpt>
      <trkpt lat="44.70964" lon="-0.62911">
        <ele>46.348751</ele>
        <time>2014-10-05T08:02:16Z</time>
      </trkpt>
      <trkpt lat="44.70981" lon="-0.62901">
        <ele>45.909973</ele>
        <time>2014-10-05T08:02:26Z</time>
      </trkpt>
      <trkpt lat="44.70999" lon="-0.62892">
        <ele>44.892971</ele>
        <time>2014-10-05T08:02:35Z</time>
      </trkpt>
      <trkpt lat="44.71006" lon="-0.62884">
        <ele>44.753754</ele>
        <time>2014-10-05T08:02:41Z</time>
      </trkpt>
      <trkpt lat="44.71013" lon="-0.62872">
        <ele>44.816875</ele>
        <time>2014-10-05T08:02:50Z</time>
      </trkpt>
      <trkpt lat="44.71022" lon="-0.62866">
        <ele>44.334999</ele>
        <time>2014-10-05T08:02:54Z</time>
      </trkpt>
      <trkpt lat="44.71027" lon="-0.62858">
        <ele>44.110298</ele>
        <time>2014-10-05T08:02:58Z</time>
      </trkpt>
      <trkpt lat="44.71028" lon="-0.62854">
        <ele>44.079239</ele>
        <time>2014-10-05T08:03:00Z</time>
      </trkpt>
      <trkpt lat="44.71048" lon="-0.62833">
        <ele>42.132938</ele>
        <time>2014-10-05T08:03:11Z</time>
      </trkpt>
      <trkpt lat="44.71074" lon="-0.62836">
        <ele>39.447189</ele>
        <time>2014-10-05T08:03:32Z</time>
      </trkpt>
      <trkpt lat="44.71085" lon="-0.62847">
        <ele>40.023712</ele>
        <time>2014-10-05T08:04:25Z</time>
      </trkpt>
      <trkpt lat="44.71089" lon="-0.62845">
        <ele>40.101749</ele>
        <time>2014-10-05T08:04:41Z</time>
      </trkpt>
      <trkpt lat="44.7109" lon="-0.62841">
        <ele>40.055561</ele>
        <time>2014-10-05T08:04:43Z</time>
      </trkpt>
      <trkpt lat="44.71093" lon="-0.62839">
        <ele>40.092728</ele>
        <time>2014-10-05T08:04:49Z</time>
      </trkpt>
      <trkpt lat="44.71105" lon="-0.62835">
        <ele>40.339634</ele>
        <time>2014-10-05T08:04:56Z</time>
      </trkpt>
      <trkpt lat="44.71113" lon="-0.62838">
        <ele>40.630219</ele>
        <time>2014-10-05T08:05:06Z</time>
      </trkpt>
      <trkpt lat="44.71132" lon="-0.62825">
        <ele>41.318748</ele>
        <time>2014-10-05T08:05:14Z</time>
      </trkpt>
      <trkpt lat="44.71192" lon="-0.62833">
        <ele>44.663906</ele>
        <time>2014-10-05T08:05:32Z</time>
      </trkpt>
      <trkpt lat="44.71211" lon="-0.62839">
        <ele>45.414375</ele>
        <time>2014-10-05T08:05:41Z</time>
      </trkpt>
      <trkpt lat="44.71222" lon="-0.62837">
        <ele>45.624374</ele>
        <time>2014-10-05T08:05:46Z</time>
      </trkpt>
      <trkpt lat="44.71232" lon="-0.62841">
        <ele>45.895</ele>
        <time>2014-10-05T08:05:50Z</time>
      </trkpt>
      <trkpt lat="44.71268" lon="-0.62833">
        <ele>46.153751</ele>
        <time>2014-10-05T08:06:02Z</time>
      </trkpt>
      <trkpt lat="44.71296" lon="-0.62801">
        <ele>45.988239</ele>
        <time>2014-10-05T08:06:12Z</time>
      </trkpt>
      <trkpt lat="44.71322" lon="-0.62777">
        <ele>46.535</ele>
        <time>2014-10-05T08:06:21Z</time>
      </trkpt>
      <trkpt lat="44.71363" lon="-0.62729">
        <ele>47.73856</ele>
        <time>2014-10-05T08:06:42Z</time>
      </trkpt>
      <trkpt lat="44.71365" lon="-0.62724">
        <ele>47.810127</ele>
        <time>2014-10-05T08:06:44Z</time>
      </trkpt>
      <trkpt lat="44.71391" lon="-0.62687">
        <ele>48.00563</ele>
        <time>2014-10-05T08:06:56Z</time>
      </trkpt>
      <trkpt lat="44.71433" lon="-0.62647">
        <ele>48.074955</ele>
        <time>2014-10-05T08:07:09Z</time>
      </trkpt>
      <trkpt lat="44.71465" lon="-0.62621">
        <ele>48.6175</ele>
        <time>2014-10-05T08:07:19Z</time>
      </trkpt>
      <trkpt lat="44.71499" lon="-0.62595">
        <ele>49.067814</ele>
        <time>2014-10-05T08:07:28Z</time>
      </trkpt>
      <trkpt lat="44.71521" lon="-0.62572">
        <ele>48.969681</ele>
        <time>2014-10-05T08:07:38Z</time>
      </trkpt>
      <trkpt lat="44.71524" lon="-0.62573">
        <ele>48.985016</ele>
        <time>2014-10-05T08:07:49Z</time>
      </trkpt>
      <trkpt lat="44.71525" lon="-0.62576">
        <ele>48.99062</ele>
        <time>2014-10-05T08:07:50Z</time>
      </trkpt>
      <trkpt lat="44.71524" lon="-0.62597">
        <ele>49.190533</ele>
        <time>2014-10-05T08:07:54Z</time>
      </trkpt>
      <trkpt lat="44.71524" lon="-0.62603">
        <ele>49.285595</ele>
        <time>2014-10-05T08:07:55Z</time>
      </trkpt>
      <trkpt lat="44.71542" lon="-0.62695">
        <ele>50</ele>
        <time>2014-10-05T08:08:09Z</time>
      </trkpt>
      <trkpt lat="44.71556" lon="-0.62733">
        <ele>50.230564</ele>
        <time>2014-10-05T08:08:15Z</time>
      </trkpt>
      <trkpt lat="44.71571" lon="-0.62758">
        <ele>50.730556</ele>
        <time>2014-10-05T08:08:20Z</time>
      </trkpt>
      <trkpt lat="44.716" lon="-0.62846">
        <ele>51.777809</ele>
        <time>2014-10-05T08:08:35Z</time>
      </trkpt>
      <trkpt lat="44.71586" lon="-0.63285">
        <ele>53.633751</ele>
        <time>2014-10-05T08:09:41Z</time>
      </trkpt>
      <trkpt lat="44.71583" lon="-0.63291">
        <ele>53.494373</ele>
        <time>2014-10-05T08:09:42Z</time>
      </trkpt>
      <trkpt lat="44.71563" lon="-0.63323">
        <ele>52.532501</ele>
        <time>2014-10-05T08:09:49Z</time>
      </trkpt>
      <trkpt lat="44.71555" lon="-0.63332">
        <ele>52.206875</ele>
        <time>2014-10-05T08:09:51Z</time>
      </trkpt>
      <trkpt lat="44.71496" lon="-0.6338">
        <ele>51.912571</ele>
        <time>2014-10-05T08:10:03Z</time>
      </trkpt>
      <trkpt lat="44.71481" lon="-0.63394">
        <ele>51.92474</ele>
        <time>2014-10-05T08:10:06Z</time>
      </trkpt>
      <trkpt lat="44.71477" lon="-0.63399">
        <ele>51.972374</ele>
        <time>2014-10-05T08:10:07Z</time>
      </trkpt>
      <trkpt lat="44.71463" lon="-0.63425">
        <ele>52.353439</ele>
        <time>2014-10-05T08:10:11Z</time>
      </trkpt>
      <trkpt lat="44.71416" lon="-0.63538">
        <ele>53.213123</ele>
        <time>2014-10-05T08:10:28Z</time>
      </trkpt>
      <trkpt lat="44.71409" lon="-0.6355">
        <ele>53.377377</ele>
        <time>2014-10-05T08:10:30Z</time>
      </trkpt>
      <trkpt lat="44.71374" lon="-0.63625">
        <ele>53.696907</ele>
        <time>2014-10-05T08:10:43Z</time>
      </trkpt>
      <trkpt lat="44.71357" lon="-0.63685">
        <ele>53.939011</ele>
        <time>2014-10-05T08:10:56Z</time>
      </trkpt>
      <trkpt lat="44.71347" lon="-0.63736">
        <ele>54</ele>
        <time>2014-10-05T08:11:09Z</time>
      </trkpt>
      <trkpt lat="44.71289" lon="-0.63894">
        <ele>53.462502</ele>
        <time>2014-10-05T08:11:32Z</time>
      </trkpt>
      <trkpt lat="44.71274" lon="-0.63927">
        <ele>53.57222</ele>
        <time>2014-10-05T08:11:37Z</time>
      </trkpt>
      <trkpt lat="44.71244" lon="-0.63986">
        <ele>53.535</ele>
        <time>2014-10-05T08:11:47Z</time>
      </trkpt>
      <trkpt lat="44.71231" lon="-0.64018">
        <ele>53.252499</ele>
        <time>2014-10-05T08:11:52Z</time>
      </trkpt>
      <trkpt lat="44.71187" lon="-0.64115">
        <ele>53.327499</ele>
        <time>2014-10-05T08:12:08Z</time>
      </trkpt>
      <trkpt lat="44.71183" lon="-0.64128">
        <ele>53.247501</ele>
        <time>2014-10-05T08:12:11Z</time>
      </trkpt>
      <trkpt lat="44.71184" lon="-0.64139">
        <ele>53.290001</ele>
        <time>2014-10-05T08:12:21Z</time>
      </trkpt>
      <trkpt lat="44.71186" lon="-0.64142">
        <ele>53.322498</ele>
        <time>2014-10-05T08:12:52Z</time>
      </trkpt>
      <trkpt lat="44.71185" lon="-0.64143">
        <ele>53.314999</ele>
        <time>2014-10-05T08:13:34Z</time>
      </trkpt>
      <trkpt lat="44.71277" lon="-0.64145">
        <ele>54.958561</ele>
        <time>2014-10-05T08:13:55Z</time>
      </trkpt>
      <trkpt lat="44.7134" lon="-0.64149">
        <ele>55</ele>
        <time>2014-10-05T08:14:08Z</time>
      </trkpt>
      <trkpt lat="44.71348" lon="-0.64148">
        <ele>55</ele>
        <time>2014-10-05T08:14:10Z</time>
      </trkpt>
      <trkpt lat="44.71474" lon="-0.64154">
        <ele>56</ele>
        <time>2014-10-05T08:14:39Z</time>
      </trkpt>
      <trkpt lat="44.71502" lon="-0.64157">
        <ele>56.351082</ele>
        <time>2014-10-05T08:14:46Z</time>
      </trkpt>
      <trkpt lat="44.7156" lon="-0.64159">
        <ele>56.918751</ele>
        <time>2014-10-05T08:15:01Z</time>
      </trkpt>
      <trkpt lat="44.72514" lon="-0.6287">
        <ele>56</ele>
        <time>2014-10-05T08:25:05Z</time>
      </trkpt>
      <trkpt lat="44.72508" lon="-0.62806">
        <ele>55.904999</ele>
        <time>2014-10-05T08:25:13Z</time>
      </trkpt>
      <trkpt lat="44.72492" lon="-0.62475">
        <ele>55</ele>
        <time>2014-10-05T08:25:53Z</time>
      </trkpt>
      <trkpt lat="44.72491" lon="-0.62462">
        <ele>55</ele>
        <time>2014-10-05T08:25:55Z</time>
      </trkpt>
      <trkpt lat="44.72474" lon="-0.62112">
        <ele>54.542919</ele>
        <time>2014-10-05T08:26:47Z</time>
      </trkpt>
      <trkpt lat="44.72473" lon="-0.62099">
        <ele>54.374092</ele>
        <time>2014-10-05T08:27:46Z</time>
      </trkpt>
      <trkpt lat="44.72476" lon="-0.62085">
        <ele>54.222076</ele>
        <time>2014-10-05T08:27:49Z</time>
      </trkpt>
      <trkpt lat="44.72479" lon="-0.62063">
        <ele>53.949375</ele>
        <time>2014-10-05T08:27:52Z</time>
      </trkpt>
      <trkpt lat="44.72483" lon="-0.62022">
        <ele>53.299999</ele>
        <time>2014-10-05T08:27:57Z</time>
      </trkpt>
      <trkpt lat="44.72484" lon="-0.62005">
        <ele>53.016876</ele>
        <time>2014-10-05T08:27:59Z</time>
      </trkpt>
      <trkpt lat="44.72479" lon="-0.61918">
        <ele>52.903091</ele>
        <time>2014-10-05T08:28:09Z</time>
      </trkpt>
      <trkpt lat="44.72477" lon="-0.61911">
        <ele>52.852936</ele>
        <time>2014-10-05T08:28:10Z</time>
      </trkpt>
      <trkpt lat="44.7246" lon="-0.61861">
        <ele>52.089409</ele>
        <time>2014-10-05T08:28:17Z</time>
      </trkpt>
      <trkpt lat="44.72451" lon="-0.61824">
        <ele>51.300194</ele>
        <time>2014-10-05T08:28:22Z</time>
      </trkpt>
      <trkpt lat="44.72427" lon="-0.61704">
        <ele>50.4575</ele>
        <time>2014-10-05T08:28:37Z</time>
      </trkpt>
      <trkpt lat="44.72413" lon="-0.61608">
        <ele>50.065792</ele>
        <time>2014-10-05T08:28:49Z</time>
      </trkpt>
      <trkpt lat="44.72391" lon="-0.61489">
        <ele>49.433125</ele>
        <time>2014-10-05T08:29:05Z</time>
      </trkpt>
      <trkpt lat="44.72378" lon="-0.61454">
        <ele>48.598125</ele>
        <time>2014-10-05T08:29:12Z</time>
      </trkpt>
      <trkpt lat="44.72357" lon="-0.61418">
        <ele>47.717499</ele>
        <time>2014-10-05T08:29:18Z</time>
      </trkpt>
      <trkpt lat="44.72346" lon="-0.61395">
        <ele>47.455002</ele>
        <time>2014-10-05T08:29:21Z</time>
      </trkpt>
      <trkpt lat="44.7233" lon="-0.61355">
        <ele>46.945</ele>
        <time>2014-10-05T08:29:26Z</time>
      </trkpt>
      <trkpt lat="44.72314" lon="-0.61325">
        <ele>45.806252</ele>
        <time>2014-10-05T08:29:31Z</time>
      </trkpt>
      <trkpt lat="44.72274" lon="-0.61271">
        <ele>43.244743</ele>
        <time>2014-10-05T08:29:41Z</time>
      </trkpt>
      <trkpt lat="44.72267" lon="-0.6126">
        <ele>42.894798</ele>
        <time>2014-10-05T08:29:43Z</time>
      </trkpt>
      <trkpt lat="44.72235" lon="-0.61176">
        <ele>40.945393</ele>
        <time>2014-10-05T08:29:55Z</time>
      </trkpt>
      <trkpt lat="44.72211" lon="-0.61091">
        <ele>39.348751</ele>
        <time>2014-10-05T08:30:05Z</time>
      </trkpt>
      <trkpt lat="44.72202" lon="-0.61065">
        <ele>38.4925</ele>
        <time>2014-10-05T08:30:10Z</time>
      </trkpt>
      <trkpt lat="44.722" lon="-0.61062">
        <ele>38.357498</ele>
        <time>2014-10-05T08:30:11Z</time>
      </trkpt>
      <trkpt lat="44.72175" lon="-0.60989">
        <ele>36.604374</ele>
        <time>2014-10-05T08:30:23Z</time>
      </trkpt>
      <trkpt lat="44.72169" lon="-0.60969">
        <ele>36.15625</ele>
        <time>2014-10-05T08:30:26Z</time>
      </trkpt>
      <trkpt lat="44.72163" lon="-0.60956">
        <ele>35.799374</ele>
        <time>2014-10-05T08:30:28Z</time>
      </trkpt>
      <trkpt lat="44.72154" lon="-0.60944">
        <ele>35.452892</ele>
        <time>2014-10-05T08:30:30Z</time>
      </trkpt>
      <trkpt lat="44.72144" lon="-0.60933">
        <ele>35.230751</ele>
        <time>2014-10-05T08:30:32Z</time>
      </trkpt>
      <trkpt lat="44.72113" lon="-0.60894">
        <ele>34.99445</ele>
        <time>2014-10-05T08:30:38Z</time>
      </trkpt>
      <trkpt lat="44.72101" lon="-0.60872">
        <ele>34.885086</ele>
        <time>2014-10-05T08:30:41Z</time>
      </trkpt>
      <trkpt lat="44.72086" lon="-0.60834">
        <ele>35.189999</ele>
        <time>2014-10-05T08:30:47Z</time>
      </trkpt>
      <trkpt lat="44.72083" lon="-0.60829">
        <ele>35.263748</ele>
        <time>2014-10-05T08:30:48Z</time>
      </trkpt>
      <trkpt lat="44.72051" lon="-0.60743">
        <ele>37.086876</ele>
        <time>2014-10-05T08:31:04Z</time>
      </trkpt>
      <trkpt lat="44.72029" lon="-0.60678">
        <ele>38.653126</ele>
        <time>2014-10-05T08:31:17Z</time>
      </trkpt>
      <trkpt lat="44.72005" lon="-0.60613">
        <ele>40.7925</ele>
        <time>2014-10-05T08:31:31Z</time>
      </trkpt>
      <trkpt lat="44.7199" lon="-0.60578">
        <ele>42.02</ele>
        <time>2014-10-05T08:31:40Z</time>
      </trkpt>
      <trkpt lat="44.71988" lon="-0.60579">
        <ele>42.115623</ele>
        <time>2014-10-05T08:31:41Z</time>
      </trkpt>
      <trkpt lat="44.71986" lon="-0.6058">
        <ele>42.183891</ele>
        <time>2014-10-05T08:31:42Z</time>
      </trkpt>
      <trkpt lat="44.71914" lon="-0.60682">
        <ele>43.548752</ele>
        <time>2014-10-05T08:32:13Z</time>
      </trkpt>
      <trkpt lat="44.71829" lon="-0.60799">
        <ele>41.375736</ele>
        <time>2014-10-05T08:32:42Z</time>
      </trkpt>
      <trkpt lat="44.71821" lon="-0.60808">
        <ele>41.395367</ele>
        <time>2014-10-05T08:32:44Z</time>
      </trkpt>
      <trkpt lat="44.71805" lon="-0.60832">
        <ele>41.69775</ele>
        <time>2014-10-05T08:32:49Z</time>
      </trkpt>
      <trkpt lat="44.71797" lon="-0.60846">
        <ele>41.893513</ele>
        <time>2014-10-05T08:32:52Z</time>
      </trkpt>
      <trkpt lat="44.7169" lon="-0.60996">
        <ele>42.425766</ele>
        <time>2014-10-05T08:33:25Z</time>
      </trkpt>
      <trkpt lat="44.71654" lon="-0.61043">
        <ele>43.555199</ele>
        <time>2014-10-05T08:33:35Z</time>
      </trkpt>
      <trkpt lat="44.71641" lon="-0.61065">
        <ele>44.271999</ele>
        <time>2014-10-05T08:33:40Z</time>
      </trkpt>
      <trkpt lat="44.71636" lon="-0.61074">
        <ele>44.569557</ele>
        <time>2014-10-05T08:33:42Z</time>
      </trkpt>
      <trkpt lat="44.71586" lon="-0.61153">
        <ele>44.405899</ele>
        <time>2014-10-05T08:34:00Z</time>
      </trkpt>
      <trkpt lat="44.71575" lon="-0.61167">
        <ele>44.185513</ele>
        <time>2014-10-05T08:34:03Z</time>
      </trkpt>
      <trkpt lat="44.71567" lon="-0.61174">
        <ele>44.079468</ele>
        <time>2014-10-05T08:34:05Z</time>
      </trkpt>
      <trkpt lat="44.71516" lon="-0.61209">
        <ele>41.995426</ele>
        <time>2014-10-05T08:34:15Z</time>
      </trkpt>
      <trkpt lat="44.71505" lon="-0.61217">
        <ele>42.400726</ele>
        <time>2014-10-05T08:34:17Z</time>
      </trkpt>
      <trkpt lat="44.71495" lon="-0.61223">
        <ele>42.861961</ele>
        <time>2014-10-05T08:34:19Z</time>
      </trkpt>
      <trkpt lat="44.71486" lon="-0.6123">
        <ele>43.315968</ele>
        <time>2014-10-05T08:34:21Z</time>
      </trkpt>
      <trkpt lat="44.71477" lon="-0.61236">
        <ele>43.819267</ele>
        <time>2014-10-05T08:34:23Z</time>
      </trkpt>
      <trkpt lat="44.71458" lon="-0.61242">
        <ele>44.715</ele>
        <time>2014-10-05T08:34:28Z</time>
      </trkpt>
      <trkpt lat="44.71449" lon="-0.61248">
        <ele>45.125</ele>
        <time>2014-10-05T08:34:31Z</time>
      </trkpt>
      <trkpt lat="44.71441" lon="-0.61257">
        <ele>45.388126</ele>
        <time>2014-10-05T08:34:34Z</time>
      </trkpt>
      <trkpt lat="44.71408" lon="-0.61312">
        <ele>45.877846</ele>
        <time>2014-10-05T08:34:49Z</time>
      </trkpt>
      <trkpt lat="44.71355" lon="-0.61403">
        <ele>46.124374</ele>
        <time>2014-10-05T08:35:15Z</time>
      </trkpt>
      <trkpt lat="44.71348" lon="-0.61413">
        <ele>46.11375</ele>
        <time>2014-10-05T08:35:19Z</time>
      </trkpt>
      <trkpt lat="44.71339" lon="-0.61405">
        <ele>46.430626</ele>
        <time>2014-10-05T08:35:23Z</time>
      </trkpt>
      <trkpt lat="44.71249" lon="-0.61278">
        <ele>49.929485</ele>
        <time>2014-10-05T08:35:53Z</time>
      </trkpt>
      <trkpt lat="44.7123" lon="-0.61253">
        <ele>50.69875</ele>
        <time>2014-10-05T08:35:59Z</time>
      </trkpt>
      <trkpt lat="44.71224" lon="-0.61243">
        <ele>50.987499</ele>
        <time>2014-10-05T08:36:01Z</time>
      </trkpt>
      <trkpt lat="44.71195" lon="-0.61204">
        <ele>51.594376</ele>
        <time>2014-10-05T08:36:10Z</time>
      </trkpt>
      <trkpt lat="44.71183" lon="-0.61186">
        <ele>51.8675</ele>
        <time>2014-10-05T08:36:14Z</time>
      </trkpt>
      <trkpt lat="44.7112" lon="-0.61096">
        <ele>53.223156</ele>
        <time>2014-10-05T08:36:35Z</time>
      </trkpt>
      <trkpt lat="44.711" lon="-0.61078">
        <ele>53.505001</ele>
        <time>2014-10-05T08:36:40Z</time>
      </trkpt>
      <trkpt lat="44.71077" lon="-0.61065">
        <ele>53.696251</ele>
        <time>2014-10-05T08:36:45Z</time>
      </trkpt>
      <trkpt lat="44.71059" lon="-0.61062">
        <ele>53.729374</ele>
        <time>2014-10-05T08:36:49Z</time>
      </trkpt>
      <trkpt lat="44.71055" lon="-0.6106">
        <ele>53.760624</ele>
        <time>2014-10-05T08:36:50Z</time>
      </trkpt>
      <trkpt lat="44.71051" lon="-0.61056">
        <ele>53.818748</ele>
        <time>2014-10-05T08:36:51Z</time>
      </trkpt>
      <trkpt lat="44.71007" lon="-0.6098">
        <ele>53.990395</ele>
        <time>2014-10-05T08:37:04Z</time>
      </trkpt>
      <trkpt lat="44.70938" lon="-0.60879">
        <ele>54</ele>
        <time>2014-10-05T08:37:21Z</time>
      </trkpt>
      <trkpt lat="44.70823" lon="-0.6072">
        <ele>55</ele>
        <time>2014-10-05T08:37:48Z</time>
      </trkpt>
      <trkpt lat="44.70807" lon="-0.60695">
        <ele>55</ele>
        <time>2014-10-05T08:37:55Z</time>
      </trkpt>
      <trkpt lat="44.70808" lon="-0.6069">
        <ele>55</ele>
        <time>2014-10-05T08:37:56Z</time>
      </trkpt>
      <trkpt lat="44.70803" lon="-0.60676">
        <ele>55</ele>
        <time>2014-10-05T08:37:59Z</time>
      </trkpt>
      <trkpt lat="44.7079" lon="-0.60608">
        <ele>55.29631</ele>
        <time>2014-10-05T08:38:09Z</time>
      </trkpt>
      <trkpt lat="44.70768" lon="-0.60461">
        <ele>56</ele>
        <time>2014-10-05T08:38:29Z</time>
      </trkpt>
      <trkpt lat="44.70742" lon="-0.60276">
        <ele>56</ele>
        <time>2014-10-05T08:38:54Z</time>
      </trkpt>
      <trkpt lat="44.70724" lon="-0.60139">
        <ele>57</ele>
        <time>2014-10-05T08:39:13Z</time>
      </trkpt>
      <trkpt lat="44.70698" lon="-0.5987">
        <ele>57</ele>
        <time>2014-10-05T08:39:48Z</time>
      </trkpt>
      <trkpt lat="44.70691" lon="-0.59808">
        <ele>57</ele>
        <time>2014-10-05T08:39:57Z</time>
      </trkpt>
      <trkpt lat="44.70689" lon="-0.59795">
        <ele>57</ele>
        <time>2014-10-05T08:39:59Z</time>
      </trkpt>
      <trkpt lat="44.70691" lon="-0.59783">
        <ele>57</ele>
        <time>2014-10-05T08:40:01Z</time>
      </trkpt>
      <trkpt lat="44.70692" lon="-0.59776">
        <ele>57</ele>
        <time>2014-10-05T08:40:02Z</time>
      </trkpt>
      <trkpt lat="44.70689" lon="-0.59761">
        <ele>56.962502</ele>
        <time>2014-10-05T08:40:04Z</time>
      </trkpt>
      <trkpt lat="44.70676" lon="-0.59635">
        <ele>56</ele>
        <time>2014-10-05T08:40:18Z</time>
      </trkpt>
      <trkpt lat="44.70663" lon="-0.59499">
        <ele>55.849415</ele>
        <time>2014-10-05T08:40:33Z</time>
      </trkpt>
      <trkpt lat="44.70652" lon="-0.59404">
        <ele>55.121437</ele>
        <time>2014-10-05T08:40:44Z</time>
      </trkpt>
      <trkpt lat="44.70649" lon="-0.59397">
        <ele>55.0965</ele>
        <time>2014-10-05T08:40:45Z</time>
      </trkpt>
      <trkpt lat="44.70641" lon="-0.59387">
        <ele>55.04364</ele>
        <time>2014-10-05T08:40:47Z</time>
      </trkpt>
      <trkpt lat="44.70639" lon="-0.59382">
        <ele>55</ele>
        <time>2014-10-05T08:40:48Z</time>
      </trkpt>
      <trkpt lat="44.70638" lon="-0.59376">
        <ele>55</ele>
        <time>2014-10-05T08:40:49Z</time>
      </trkpt>
      <trkpt lat="44.70639" lon="-0.59365">
        <ele>55</ele>
        <time>2014-10-05T08:40:51Z</time>
      </trkpt>
      <trkpt lat="44.70643" lon="-0.59351">
        <ele>55</ele>
        <time>2014-10-05T08:40:59Z</time>
      </trkpt>
      <trkpt lat="44.70642" lon="-0.5935">
        <ele>55</ele>
        <time>2014-10-05T08:41:25Z</time>
      </trkpt>
      <trkpt lat="44.70645" lon="-0.59341">
        <ele>55</ele>
        <time>2014-10-05T08:41:49Z</time>
      </trkpt>
      <trkpt lat="44.70645" lon="-0.59315">
        <ele>55</ele>
        <time>2014-10-05T08:41:54Z</time>
      </trkpt>
      <trkpt lat="44.70639" lon="-0.59263">
        <ele>55</ele>
        <time>2014-10-05T08:42:01Z</time>
      </trkpt>
      <trkpt lat="44.70621" lon="-0.5907">
        <ele>55</ele>
        <time>2014-10-05T08:42:27Z</time>
      </trkpt>
      <trkpt lat="44.70617" lon="-0.59033">
        <ele>54.811657</ele>
        <time>2014-10-05T08:42:32Z</time>
      </trkpt>
      <trkpt lat="44.70614" lon="-0.59027">
        <ele>54.745113</ele>
        <time>2014-10-05T08:42:33Z</time>
      </trkpt>
      <trkpt lat="44.70608" lon="-0.59018">
        <ele>54.582607</ele>
        <time>2014-10-05T08:42:35Z</time>
      </trkpt>
      <trkpt lat="44.70606" lon="-0.59013">
        <ele>54.501705</ele>
        <time>2014-10-05T08:42:36Z</time>
      </trkpt>
      <trkpt lat="44.70605" lon="-0.59007">
        <ele>54.426308</ele>
        <time>2014-10-05T08:42:37Z</time>
      </trkpt>
      <trkpt lat="44.70612" lon="-0.58982">
        <ele>54.657188</ele>
        <time>2014-10-05T08:42:41Z</time>
      </trkpt>
      <trkpt lat="44.70612" lon="-0.58974">
        <ele>54.719063</ele>
        <time>2014-10-05T08:42:42Z</time>
      </trkpt>
      <trkpt lat="44.70596" lon="-0.58816">
        <ele>55.903549</ele>
        <time>2014-10-05T08:43:02Z</time>
      </trkpt>
      <trkpt lat="44.70586" lon="-0.58735">
        <ele>56</ele>
        <time>2014-10-05T08:43:13Z</time>
      </trkpt>
      <trkpt lat="44.70586" lon="-0.5872">
        <ele>56</ele>
        <time>2014-10-05T08:43:15Z</time>
      </trkpt>
      <trkpt lat="44.70575" lon="-0.58609">
        <ele>55.437401</ele>
        <time>2014-10-05T08:43:29Z</time>
      </trkpt>
      <trkpt lat="44.70559" lon="-0.58431">
        <ele>54.98875</ele>
        <time>2014-10-05T08:43:51Z</time>
      </trkpt>
      <trkpt lat="44.7055" lon="-0.58341">
        <ele>54.143608</ele>
        <time>2014-10-05T08:44:02Z</time>
      </trkpt>
      <trkpt lat="44.70546" lon="-0.58308">
        <ele>54.020443</ele>
        <time>2014-10-05T08:44:06Z</time>
      </trkpt>
      <trkpt lat="44.70532" lon="-0.58176">
        <ele>54</ele>
        <time>2014-10-05T08:44:22Z</time>
      </trkpt>
      <trkpt lat="44.70528" lon="-0.58134">
        <ele>54</ele>
        <time>2014-10-05T08:44:27Z</time>
      </trkpt>
      <trkpt lat="44.70513" lon="-0.58015">
        <ele>53</ele>
        <time>2014-10-05T08:44:42Z</time>
      </trkpt>
      <trkpt lat="44.70491" lon="-0.57937">
        <ele>52.374187</ele>
        <time>2014-10-05T08:44:56Z</time>
      </trkpt>
      <trkpt lat="44.7046" lon="-0.57926">
        <ele>52.039093</ele>
        <time>2014-10-05T08:45:04Z</time>
      </trkpt>
      <trkpt lat="44.70452" lon="-0.5792">
        <ele>51.986923</ele>
        <time>2014-10-05T08:45:06Z</time>
      </trkpt>
      <trkpt lat="44.70445" lon="-0.57916">
        <ele>51.933849</ele>
        <time>2014-10-05T08:45:08Z</time>
      </trkpt>
      <trkpt lat="44.70443" lon="-0.57911">
        <ele>51.875313</ele>
        <time>2014-10-05T08:45:09Z</time>
      </trkpt>
      <trkpt lat="44.70448" lon="-0.57887">
        <ele>51.569706</ele>
        <time>2014-10-05T08:45:16Z</time>
      </trkpt>
      <trkpt lat="44.70467" lon="-0.57823">
        <ele>51.268059</ele>
        <time>2014-10-05T08:45:26Z</time>
      </trkpt>
      <trkpt lat="44.70482" lon="-0.57795">
        <ele>51</ele>
        <time>2014-10-05T08:45:31Z</time>
      </trkpt>
      <trkpt lat="44.70521" lon="-0.57688">
        <ele>51</ele>
        <time>2014-10-05T08:45:46Z</time>
      </trkpt>
      <trkpt lat="44.70527" lon="-0.57668">
        <ele>50.988525</ele>
        <time>2014-10-05T08:45:49Z</time>
      </trkpt>
      <trkpt lat="44.70534" lon="-0.57653">
        <ele>50.992844</ele>
        <time>2014-10-05T08:45:52Z</time>
      </trkpt>
      <trkpt lat="44.70539" lon="-0.57634">
        <ele>51</ele>
        <time>2014-10-05T08:45:55Z</time>
      </trkpt>
      <trkpt lat="44.70559" lon="-0.57579">
        <ele>50.485626</ele>
        <time>2014-10-05T08:46:03Z</time>
      </trkpt>
      <trkpt lat="44.7057" lon="-0.57544">
        <ele>49.913094</ele>
        <time>2014-10-05T08:46:08Z</time>
      </trkpt>
      <trkpt lat="44.70581" lon="-0.57504">
        <ele>49.2332</ele>
        <time>2014-10-05T08:46:17Z</time>
      </trkpt>
      <trkpt lat="44.70587" lon="-0.57507">
        <ele>49.397499</ele>
        <time>2014-10-05T08:46:19Z</time>
      </trkpt>
      <trkpt lat="44.70694" lon="-0.57578">
        <ele>51</ele>
        <time>2014-10-05T08:46:51Z</time>
      </trkpt>
      <trkpt lat="44.70747" lon="-0.57618">
        <ele>51</ele>
        <time>2014-10-05T08:47:07Z</time>
      </trkpt>
      <trkpt lat="44.70872" lon="-0.57723">
        <ele>51</ele>
        <time>2014-10-05T08:47:39Z</time>
      </trkpt>
      <trkpt lat="44.70885" lon="-0.57732">
        <ele>51</ele>
        <time>2014-10-05T08:47:42Z</time>
      </trkpt>
      <trkpt lat="44.70934" lon="-0.57774">
        <ele>51.272499</ele>
        <time>2014-10-05T08:47:54Z</time>
      </trkpt>
      <trkpt lat="44.7097" lon="-0.57779">
        <ele>51.317501</ele>
        <time>2014-10-05T08:48:05Z</time>
      </trkpt>
      <trkpt lat="44.70982" lon="-0.57779">
        <ele>51.307499</ele>
        <time>2014-10-05T08:48:14Z</time>
      </trkpt>
      <trkpt lat="44.70999" lon="-0.57771">
        <ele>51.179375</ele>
        <time>2014-10-05T08:48:29Z</time>
      </trkpt>
      <trkpt lat="44.71025" lon="-0.57715">
        <ele>51</ele>
        <time>2014-10-05T08:48:42Z</time>
      </trkpt>
      <trkpt lat="44.71028" lon="-0.57706">
        <ele>51</ele>
        <time>2014-10-05T08:48:44Z</time>
      </trkpt>
      <trkpt lat="44.71112" lon="-0.57514">
        <ele>51</ele>
        <time>2014-10-05T08:49:17Z</time>
      </trkpt>
      <trkpt lat="44.71114" lon="-0.5749">
        <ele>50.625</ele>
        <time>2014-10-05T08:49:21Z</time>
      </trkpt>
      <trkpt lat="44.711" lon="-0.57448">
        <ele>50</ele>
        <time>2014-10-05T08:49:28Z</time>
      </trkpt>
      <trkpt lat="44.71101" lon="-0.5741">
        <ele>50</ele>
        <time>2014-10-05T08:49:34Z</time>
      </trkpt>
      <trkpt lat="44.71134" lon="-0.57331">
        <ele>50</ele>
        <time>2014-10-05T08:49:50Z</time>
      </trkpt>
      <trkpt lat="44.71159" lon="-0.57268">
        <ele>49.398537</ele>
        <time>2014-10-05T08:50:02Z</time>
      </trkpt>
      <trkpt lat="44.71177" lon="-0.57226">
        <ele>49.004829</ele>
        <time>2014-10-05T08:50:10Z</time>
      </trkpt>
      <trkpt lat="44.71189" lon="-0.57199">
        <ele>49</ele>
        <time>2014-10-05T08:50:19Z</time>
      </trkpt>
      <trkpt lat="44.7119" lon="-0.57196">
        <ele>49</ele>
        <time>2014-10-05T08:50:20Z</time>
      </trkpt>
      <trkpt lat="44.71198" lon="-0.5718">
        <ele>49</ele>
        <time>2014-10-05T08:50:24Z</time>
      </trkpt>
      <trkpt lat="44.71242" lon="-0.57078">
        <ele>48.985626</ele>
        <time>2014-10-05T08:50:40Z</time>
      </trkpt>
      <trkpt lat="44.71255" lon="-0.57045">
        <ele>48.453125</ele>
        <time>2014-10-05T08:50:45Z</time>
      </trkpt>
      <trkpt lat="44.71323" lon="-0.5682">
        <ele>45.996109</ele>
        <time>2014-10-05T08:51:16Z</time>
      </trkpt>
      <trkpt lat="44.71326" lon="-0.56792">
        <ele>45.945156</ele>
        <time>2014-10-05T08:51:20Z</time>
      </trkpt>
      <trkpt lat="44.71342" lon="-0.56762">
        <ele>45.522278</ele>
        <time>2014-10-05T08:51:26Z</time>
      </trkpt>
      <trkpt lat="44.71354" lon="-0.5675">
        <ele>45.228516</ele>
        <time>2014-10-05T08:51:30Z</time>
      </trkpt>
      <trkpt lat="44.7136" lon="-0.5675">
        <ele>45.139626</ele>
        <time>2014-10-05T08:51:33Z</time>
      </trkpt>
      <trkpt lat="44.71376" lon="-0.56709">
        <ele>45.305</ele>
        <time>2014-10-05T08:51:45Z</time>
      </trkpt>
      <trkpt lat="44.71395" lon="-0.56671">
        <ele>46.064999</ele>
        <time>2014-10-05T08:51:52Z</time>
      </trkpt>
      <trkpt lat="44.71402" lon="-0.56648">
        <ele>46.389999</ele>
        <time>2014-10-05T08:51:56Z</time>
      </trkpt>
      <trkpt lat="44.71443" lon="-0.56595">
        <ele>47.76215</ele>
        <time>2014-10-05T08:52:10Z</time>
      </trkpt>
      <trkpt lat="44.71488" lon="-0.56569">
        <ele>49.416462</ele>
        <time>2014-10-05T08:52:24Z</time>
      </trkpt>
      <trkpt lat="44.71539" lon="-0.5653">
        <ele>50.040619</ele>
        <time>2014-10-05T08:52:42Z</time>
      </trkpt>
      <trkpt lat="44.71563" lon="-0.56511">
        <ele>49.814999</ele>
        <time>2014-10-05T08:52:49Z</time>
      </trkpt>
      <trkpt lat="44.71603" lon="-0.56474">
        <ele>48.945</ele>
        <time>2014-10-05T08:53:00Z</time>
      </trkpt>
      <trkpt lat="44.71625" lon="-0.56452">
        <ele>48.226875</ele>
        <time>2014-10-05T08:53:06Z</time>
      </trkpt>
      <trkpt lat="44.71637" lon="-0.56442">
        <ele>47.811249</ele>
        <time>2014-10-05T08:53:09Z</time>
      </trkpt>
      <trkpt lat="44.71674" lon="-0.56415">
        <ele>46.525623</ele>
        <time>2014-10-05T08:53:22Z</time>
      </trkpt>
      <trkpt lat="44.71686" lon="-0.56415">
        <ele>46.271252</ele>
        <time>2014-10-05T08:53:26Z</time>
      </trkpt>
      <trkpt lat="44.71709" lon="-0.56414">
        <ele>46.415802</ele>
        <time>2014-10-05T08:53:32Z</time>
      </trkpt>
      <trkpt lat="44.71814" lon="-0.56347">
        <ele>49.391876</ele>
        <time>2014-10-05T08:54:01Z</time>
      </trkpt>
      <trkpt lat="44.71866" lon="-0.56312">
        <ele>51.465626</ele>
        <time>2014-10-05T08:54:16Z</time>
      </trkpt>
      <trkpt lat="44.7201" lon="-0.5622">
        <ele>54.23</ele>
        <time>2014-10-05T08:54:59Z</time>
      </trkpt>
      <trkpt lat="44.72023" lon="-0.56161">
        <ele>54.802502</ele>
        <time>2014-10-05T08:55:12Z</time>
      </trkpt>
      <trkpt lat="44.72025" lon="-0.56143">
        <ele>54.759998</ele>
        <time>2014-10-05T08:55:15Z</time>
      </trkpt>
      <trkpt lat="44.72052" lon="-0.56105">
        <ele>54.185001</ele>
        <time>2014-10-05T08:55:25Z</time>
      </trkpt>
      <trkpt lat="44.72056" lon="-0.56104">
        <ele>54.110001</ele>
        <time>2014-10-05T08:55:26Z</time>
      </trkpt>
      <trkpt lat="44.72093" lon="-0.56106">
        <ele>53.282501</ele>
        <time>2014-10-05T08:55:35Z</time>
      </trkpt>
      <trkpt lat="44.72137" lon="-0.56113">
        <ele>52.275936</ele>
        <time>2014-10-05T08:55:44Z</time>
      </trkpt>
      <trkpt lat="44.72181" lon="-0.56126">
        <ele>51.317501</ele>
        <time>2014-10-05T08:57:15Z</time>
      </trkpt>
      <trkpt lat="44.72182" lon="-0.56124">
        <ele>51.2925</ele>
        <time>2014-10-05T08:57:40Z</time>
      </trkpt>
      <trkpt lat="44.72191" lon="-0.56118">
        <ele>51.084999</ele>
        <time>2014-10-05T08:57:44Z</time>
      </trkpt>
      <trkpt lat="44.72248" lon="-0.56065">
        <ele>48.8475</ele>
        <time>2014-10-05T08:57:59Z</time>
      </trkpt>
      <trkpt lat="44.72301" lon="-0.56008">
        <ele>47.702499</ele>
        <time>2014-10-05T08:58:10Z</time>
      </trkpt>
      <trkpt lat="44.72332" lon="-0.55977">
        <ele>47.368526</ele>
        <time>2014-10-05T08:58:16Z</time>
      </trkpt>
      <trkpt lat="44.72347" lon="-0.5596">
        <ele>47.358124</ele>
        <time>2014-10-05T08:58:19Z</time>
      </trkpt>
      <trkpt lat="44.72398" lon="-0.55911">
        <ele>46.788387</ele>
        <time>2014-10-05T08:58:32Z</time>
      </trkpt>
      <trkpt lat="44.72439" lon="-0.55868">
        <ele>46.737499</ele>
        <time>2014-10-05T08:58:45Z</time>
      </trkpt>
      <trkpt lat="44.72442" lon="-0.55866">
        <ele>46.657501</ele>
        <time>2014-10-05T08:58:46Z</time>
      </trkpt>
      <trkpt lat="44.72465" lon="-0.55858">
        <ele>46.147499</ele>
        <time>2014-10-05T08:58:52Z</time>
      </trkpt>
      <trkpt lat="44.72478" lon="-0.55858">
        <ele>46</ele>
        <time>2014-10-05T08:58:55Z</time>
      </trkpt>
      <trkpt lat="44.72482" lon="-0.55858">
        <ele>46</ele>
        <time>2014-10-05T08:58:56Z</time>
      </trkpt>
      <trkpt lat="44.72505" lon="-0.55867">
        <ele>46</ele>
        <time>2014-10-05T08:59:03Z</time>
      </trkpt>
      <trkpt lat="44.72509" lon="-0.55862">
        <ele>46</ele>
        <time>2014-10-05T08:59:05Z</time>
      </trkpt>
      <trkpt lat="44.7251" lon="-0.55856">
        <ele>46</ele>
        <time>2014-10-05T08:59:07Z</time>
      </trkpt>
      <trkpt lat="44.72512" lon="-0.55852">
        <ele>46</ele>
        <time>2014-10-05T08:59:08Z</time>
      </trkpt>
      <trkpt lat="44.72517" lon="-0.55846">
        <ele>46</ele>
        <time>2014-10-05T08:59:10Z</time>
      </trkpt>
      <trkpt lat="44.72519" lon="-0.55845">
        <ele>46</ele>
        <time>2014-10-05T08:59:11Z</time>
      </trkpt>
      <trkpt lat="44.72627" lon="-0.55843">
        <ele>44.870201</ele>
        <time>2014-10-05T08:59:32Z</time>
      </trkpt>
      <trkpt lat="44.7271" lon="-0.55851">
        <ele>43.650623</ele>
        <time>2014-10-05T08:59:48Z</time>
      </trkpt>
      <trkpt lat="44.72789" lon="-0.55872">
        <ele>42.967384</ele>
        <time>2014-10-05T09:00:03Z</time>
      </trkpt>
      <trkpt lat="44.72847" lon="-0.55906">
        <ele>42</ele>
        <time>2014-10-05T09:00:17Z</time>
      </trkpt>
      <trkpt lat="44.72928" lon="-0.55961">
        <ele>40.981979</ele>
        <time>2014-10-05T09:00:35Z</time>
      </trkpt>
      <trkpt lat="44.72991" lon="-0.55999">
        <ele>41.183002</ele>
        <time>2014-10-05T09:00:50Z</time>
      </trkpt>
      <trkpt lat="44.7305" lon="-0.56039">
        <ele>41.944801</ele>
        <time>2014-10-05T09:01:04Z</time>
      </trkpt>
      <trkpt lat="44.73058" lon="-0.56048">
        <ele>42</ele>
        <time>2014-10-05T09:01:07Z</time>
      </trkpt>
      <trkpt lat="44.73059" lon="-0.56052">
        <ele>42</ele>
        <time>2014-10-05T09:01:08Z</time>
      </trkpt>
      <trkpt lat="44.73059" lon="-0.56058">
        <ele>42</ele>
        <time>2014-10-05T09:01:09Z</time>
      </trkpt>
      <trkpt lat="44.73059" lon="-0.56064">
        <ele>42</ele>
        <time>2014-10-05T09:01:10Z</time>
      </trkpt>
      <trkpt lat="44.73056" lon="-0.56076">
        <ele>42</ele>
        <time>2014-10-05T09:01:12Z</time>
      </trkpt>
      <trkpt lat="44.73028" lon="-0.56211">
        <ele>42</ele>
        <time>2014-10-05T09:01:34Z</time>
      </trkpt>
      <trkpt lat="44.73017" lon="-0.56284">
        <ele>42.958126</ele>
        <time>2014-10-05T09:01:49Z</time>
      </trkpt>
      <trkpt lat="44.73032" lon="-0.56332">
        <ele>43</ele>
        <time>2014-10-05T09:02:00Z</time>
      </trkpt>
      <trkpt lat="44.73063" lon="-0.56382">
        <ele>43.705391</ele>
        <time>2014-10-05T09:02:12Z</time>
      </trkpt>
      <trkpt lat="44.73102" lon="-0.56408">
        <ele>43.71888</ele>
        <time>2014-10-05T09:02:25Z</time>
      </trkpt>
      <trkpt lat="44.73125" lon="-0.56373">
        <ele>43.779816</ele>
        <time>2014-10-05T09:02:35Z</time>
      </trkpt>
      <trkpt lat="44.73156" lon="-0.56332">
        <ele>43.711102</ele>
        <time>2014-10-05T09:02:46Z</time>
      </trkpt>
      <trkpt lat="44.73212" lon="-0.56271">
        <ele>43.184746</ele>
        <time>2014-10-05T09:03:00Z</time>
      </trkpt>
      <trkpt lat="44.73232" lon="-0.5625">
        <ele>42.851425</ele>
        <time>2014-10-05T09:03:09Z</time>
      </trkpt>
      <trkpt lat="44.73258" lon="-0.56234">
        <ele>42.345673</ele>
        <time>2014-10-05T09:03:16Z</time>
      </trkpt>
      <trkpt lat="44.73272" lon="-0.56228">
        <ele>42.158733</ele>
        <time>2014-10-05T09:03:20Z</time>
      </trkpt>
      <trkpt lat="44.73293" lon="-0.56234">
        <ele>41.154171</ele>
        <time>2014-10-05T09:03:26Z</time>
      </trkpt>
      <trkpt lat="44.73317" lon="-0.56227">
        <ele>40.428242</ele>
        <time>2014-10-05T09:03:32Z</time>
      </trkpt>
      <trkpt lat="44.73317" lon="-0.56206">
        <ele>41.088161</ele>
        <time>2014-10-05T09:03:37Z</time>
      </trkpt>
      <trkpt lat="44.73289" lon="-0.56056">
        <ele>43</ele>
        <time>2014-10-05T09:04:07Z</time>
      </trkpt>
      <trkpt lat="44.73287" lon="-0.56023">
        <ele>43</ele>
        <time>2014-10-05T09:04:16Z</time>
      </trkpt>
      <trkpt lat="44.7328" lon="-0.56006">
        <ele>43</ele>
        <time>2014-10-05T09:04:26Z</time>
      </trkpt>
      <trkpt lat="44.73278" lon="-0.55996">
        <ele>43</ele>
        <time>2014-10-05T09:04:28Z</time>
      </trkpt>
      <trkpt lat="44.73255" lon="-0.55872">
        <ele>42.23875</ele>
        <time>2014-10-05T09:06:07Z</time>
      </trkpt>
      <trkpt lat="44.73254" lon="-0.55872">
        <ele>42.228127</ele>
        <time>2014-10-05T09:06:09Z</time>
      </trkpt>
      <trkpt lat="44.73206" lon="-0.55881">
        <ele>41.740627</ele>
        <time>2014-10-05T09:06:22Z</time>
      </trkpt>
      <trkpt lat="44.73194" lon="-0.55888">
        <ele>41.591251</ele>
        <time>2014-10-05T09:06:25Z</time>
      </trkpt>
      <trkpt lat="44.73133" lon="-0.55903">
        <ele>40.5863</ele>
        <time>2014-10-05T09:06:37Z</time>
      </trkpt>
      <trkpt lat="44.73104" lon="-0.55912">
        <ele>40.07663</ele>
        <time>2014-10-05T09:06:43Z</time>
      </trkpt>
      <trkpt lat="44.73093" lon="-0.55897">
        <ele>39.957813</ele>
        <time>2014-10-05T09:06:49Z</time>
      </trkpt>
      <trkpt lat="44.73123" lon="-0.55764">
        <ele>39.041252</ele>
        <time>2014-10-05T09:07:07Z</time>
      </trkpt>
      <trkpt lat="44.73129" lon="-0.55715">
        <ele>38.36375</ele>
        <time>2014-10-05T09:07:17Z</time>
      </trkpt>
      <trkpt lat="44.7313" lon="-0.55716">
        <ele>38.386875</ele>
        <time>2014-10-05T09:07:48Z</time>
      </trkpt>
      <trkpt lat="44.73142" lon="-0.55653">
        <ele>37.487499</ele>
        <time>2014-10-05T09:08:16Z</time>
      </trkpt>
      <trkpt lat="44.73165" lon="-0.55542">
        <ele>34.592411</ele>
        <time>2014-10-05T09:08:29Z</time>
      </trkpt>
      <trkpt lat="44.73172" lon="-0.55515">
        <ele>34.245571</ele>
        <time>2014-10-05T09:08:32Z</time>
      </trkpt>
      <trkpt lat="44.73219" lon="-0.55275">
        <ele>28.015162</ele>
        <time>2014-10-05T09:08:59Z</time>
      </trkpt>
      <trkpt lat="44.73222" lon="-0.55257">
        <ele>27.680626</ele>
        <time>2014-10-05T09:09:02Z</time>
      </trkpt>
      <trkpt lat="44.73252" lon="-0.55122">
        <ele>24.4475</ele>
        <time>2014-10-05T09:09:17Z</time>
      </trkpt>
      <trkpt lat="44.7328" lon="-0.54989">
        <ele>22.226875</ele>
        <time>2014-10-05T09:09:31Z</time>
      </trkpt>
      <trkpt lat="44.73295" lon="-0.549">
        <ele>21.214319</ele>
        <time>2014-10-05T09:09:41Z</time>
      </trkpt>
      <trkpt lat="44.73295" lon="-0.54894">
        <ele>21.191263</ele>
        <time>2014-10-05T09:09:42Z</time>
      </trkpt>
      <trkpt lat="44.73294" lon="-0.5489">
        <ele>21.184898</ele>
        <time>2014-10-05T09:09:43Z</time>
      </trkpt>
      <trkpt lat="44.73292" lon="-0.54886">
        <ele>21.19805</ele>
        <time>2014-10-05T09:09:44Z</time>
      </trkpt>
      <trkpt lat="44.73273" lon="-0.54885">
        <ele>21.448524</ele>
        <time>2014-10-05T09:09:50Z</time>
      </trkpt>
      <trkpt lat="44.73266" lon="-0.54889">
        <ele>21.591984</ele>
        <time>2014-10-05T09:09:52Z</time>
      </trkpt>
      <trkpt lat="44.73243" lon="-0.54908">
        <ele>21.966249</ele>
        <time>2014-10-05T09:09:59Z</time>
      </trkpt>
      <trkpt lat="44.73207" lon="-0.54927">
        <ele>22.508751</ele>
        <time>2014-10-05T09:10:07Z</time>
      </trkpt>
      <trkpt lat="44.73191" lon="-0.54933">
        <ele>22.959999</ele>
        <time>2014-10-05T09:10:10Z</time>
      </trkpt>
      <trkpt lat="44.72999" lon="-0.55017">
        <ele>27.676876</ele>
        <time>2014-10-05T09:10:57Z</time>
      </trkpt>
      <trkpt lat="44.72974" lon="-0.54993">
        <ele>27.546875</ele>
        <time>2014-10-05T09:11:05Z</time>
      </trkpt>
      <trkpt lat="44.72954" lon="-0.54968">
        <ele>27.155624</ele>
        <time>2014-10-05T09:11:10Z</time>
      </trkpt>
      <trkpt lat="44.72944" lon="-0.54959">
        <ele>27.055626</ele>
        <time>2014-10-05T09:11:12Z</time>
      </trkpt>
      <trkpt lat="44.72929" lon="-0.54949">
        <ele>27.215338</ele>
        <time>2014-10-05T09:11:15Z</time>
      </trkpt>
      <trkpt lat="44.72808" lon="-0.54906">
        <ele>27.289375</ele>
        <time>2014-10-05T09:11:39Z</time>
      </trkpt>
      <trkpt lat="44.72785" lon="-0.54899">
        <ele>27.210625</ele>
        <time>2014-10-05T09:11:45Z</time>
      </trkpt>
      <trkpt lat="44.7277" lon="-0.54899">
        <ele>27.2125</ele>
        <time>2014-10-05T09:11:50Z</time>
      </trkpt>
      <trkpt lat="44.72769" lon="-0.54892">
        <ele>27.101875</ele>
        <time>2014-10-05T09:11:52Z</time>
      </trkpt>
      <trkpt lat="44.72772" lon="-0.54878">
        <ele>26.884375</ele>
        <time>2014-10-05T09:11:55Z</time>
      </trkpt>
      <trkpt lat="44.72781" lon="-0.54788">
        <ele>25.585867</ele>
        <time>2014-10-05T09:12:11Z</time>
      </trkpt>
      <trkpt lat="44.72789" lon="-0.54719">
        <ele>25.132826</ele>
        <time>2014-10-05T09:12:20Z</time>
      </trkpt>
      <trkpt lat="44.72788" lon="-0.54713">
        <ele>25.089417</ele>
        <time>2014-10-05T09:12:21Z</time>
      </trkpt>
      <trkpt lat="44.72785" lon="-0.54708">
        <ele>25.05032</ele>
        <time>2014-10-05T09:12:22Z</time>
      </trkpt>
      <trkpt lat="44.72781" lon="-0.54705">
        <ele>25.025078</ele>
        <time>2014-10-05T09:12:23Z</time>
      </trkpt>
      <trkpt lat="44.72765" lon="-0.54702">
        <ele>24.857069</ele>
        <time>2014-10-05T09:12:26Z</time>
      </trkpt>
      <trkpt lat="44.72684" lon="-0.54692">
        <ele>24.962782</ele>
        <time>2014-10-05T09:12:39Z</time>
      </trkpt>
      <trkpt lat="44.7266" lon="-0.54688">
        <ele>24.981874</ele>
        <time>2014-10-05T09:12:44Z</time>
      </trkpt>
      <trkpt lat="44.72653" lon="-0.54681">
        <ele>24.954437</ele>
        <time>2014-10-05T09:12:46Z</time>
      </trkpt>
      <trkpt lat="44.7265" lon="-0.54677">
        <ele>24.942766</ele>
        <time>2014-10-05T09:12:47Z</time>
      </trkpt>
      <trkpt lat="44.72649" lon="-0.54671">
        <ele>24.927851</ele>
        <time>2014-10-05T09:12:48Z</time>
      </trkpt>
      <trkpt lat="44.72647" lon="-0.54576">
        <ele>25.546387</ele>
        <time>2014-10-05T09:13:02Z</time>
      </trkpt>
      <trkpt lat="44.72648" lon="-0.54536">
        <ele>25.285</ele>
        <time>2014-10-05T09:13:09Z</time>
      </trkpt>
      <trkpt lat="44.72648" lon="-0.54437">
        <ele>22.833853</ele>
        <time>2014-10-05T09:13:23Z</time>
      </trkpt>
      <trkpt lat="44.72646" lon="-0.54229">
        <ele>19.731321</ele>
        <time>2014-10-05T09:13:50Z</time>
      </trkpt>
      <trkpt lat="44.72646" lon="-0.54225">
        <ele>19.678972</ele>
        <time>2014-10-05T09:13:51Z</time>
      </trkpt>
      <trkpt lat="44.72644" lon="-0.54222">
        <ele>19.647453</ele>
        <time>2014-10-05T09:13:52Z</time>
      </trkpt>
      <trkpt lat="44.72641" lon="-0.54219">
        <ele>19.643118</ele>
        <time>2014-10-05T09:13:53Z</time>
      </trkpt>
      <trkpt lat="44.72584" lon="-0.54199">
        <ele>20.132385</ele>
        <time>2014-10-05T09:14:06Z</time>
      </trkpt>
      <trkpt lat="44.7248" lon="-0.5418">
        <ele>20.866875</ele>
        <time>2014-10-05T09:14:26Z</time>
      </trkpt>
      <trkpt lat="44.72476" lon="-0.54181">
        <ele>20.971874</ele>
        <time>2014-10-05T09:14:27Z</time>
      </trkpt>
      <trkpt lat="44.72465" lon="-0.54184">
        <ele>21.145</ele>
        <time>2014-10-05T09:14:29Z</time>
      </trkpt>
      <trkpt lat="44.72456" lon="-0.54191">
        <ele>21.2575</ele>
        <time>2014-10-05T09:14:31Z</time>
      </trkpt>
      <trkpt lat="44.72433" lon="-0.54204">
        <ele>21.479376</ele>
        <time>2014-10-05T09:14:36Z</time>
      </trkpt>
      <trkpt lat="44.72406" lon="-0.54202">
        <ele>21.471874</ele>
        <time>2014-10-05T09:14:41Z</time>
      </trkpt>
      <trkpt lat="44.72385" lon="-0.54203">
        <ele>21.501249</ele>
        <time>2014-10-05T09:14:45Z</time>
      </trkpt>
      <trkpt lat="44.72381" lon="-0.54205">
        <ele>21.540625</ele>
        <time>2014-10-05T09:14:46Z</time>
      </trkpt>
      <trkpt lat="44.72376" lon="-0.54215">
        <ele>21.783125</ele>
        <time>2014-10-05T09:14:48Z</time>
      </trkpt>
      <trkpt lat="44.7236" lon="-0.54278">
        <ele>23.125</ele>
        <time>2014-10-05T09:14:59Z</time>
      </trkpt>
      <trkpt lat="44.72356" lon="-0.5428">
        <ele>23.241249</ele>
        <time>2014-10-05T09:15:00Z</time>
      </trkpt>
      <trkpt lat="44.72353" lon="-0.54281">
        <ele>23.33625</ele>
        <time>2014-10-05T09:15:01Z</time>
      </trkpt>
      <trkpt lat="44.72347" lon="-0.54279">
        <ele>23.446251</ele>
        <time>2014-10-05T09:15:03Z</time>
      </trkpt>
      <trkpt lat="44.72341" lon="-0.54275">
        <ele>23.5075</ele>
        <time>2014-10-05T09:15:05Z</time>
      </trkpt>
      <trkpt lat="44.72305" lon="-0.54225">
        <ele>22.867599</ele>
        <time>2014-10-05T09:15:19Z</time>
      </trkpt>
      <trkpt lat="44.7229" lon="-0.54202">
        <ele>22.121126</ele>
        <time>2014-10-05T09:15:23Z</time>
      </trkpt>
      <trkpt lat="44.72281" lon="-0.54192">
        <ele>21.686037</ele>
        <time>2014-10-05T09:15:25Z</time>
      </trkpt>
      <trkpt lat="44.72276" lon="-0.54187">
        <ele>21.478397</ele>
        <time>2014-10-05T09:15:26Z</time>
      </trkpt>
      <trkpt lat="44.72226" lon="-0.54154">
        <ele>19.258751</ele>
        <time>2014-10-05T09:15:36Z</time>
      </trkpt>
      <trkpt lat="44.72217" lon="-0.54144">
        <ele>18.737499</ele>
        <time>2014-10-05T09:15:38Z</time>
      </trkpt>
      <trkpt lat="44.72207" lon="-0.54127">
        <ele>17.98</ele>
        <time>2014-10-05T09:15:41Z</time>
      </trkpt>
      <trkpt lat="44.72187" lon="-0.54067">
        <ele>16.129999</ele>
        <time>2014-10-05T09:15:49Z</time>
      </trkpt>
      <trkpt lat="44.72183" lon="-0.54059">
        <ele>15.92125</ele>
        <time>2014-10-05T09:15:50Z</time>
      </trkpt>
      <trkpt lat="44.72175" lon="-0.54045">
        <ele>15.526875</ele>
        <time>2014-10-05T09:15:51Z</time>
      </trkpt>
      <trkpt lat="44.72168" lon="-0.54034">
        <ele>15.19375</ele>
        <time>2014-10-05T09:15:52Z</time>
      </trkpt>
      <trkpt lat="44.72161" lon="-0.54026">
        <ele>14.903634</ele>
        <time>2014-10-05T09:15:53Z</time>
      </trkpt>
      <trkpt lat="44.72147" lon="-0.54014">
        <ele>14.42125</ele>
        <time>2014-10-05T09:15:55Z</time>
      </trkpt>
      <trkpt lat="44.72115" lon="-0.53993">
        <ele>13.391914</ele>
        <time>2014-10-05T09:16:00Z</time>
      </trkpt>
      <trkpt lat="44.72109" lon="-0.53992">
        <ele>13.329628</ele>
        <time>2014-10-05T09:16:01Z</time>
      </trkpt>
      <trkpt lat="44.72097" lon="-0.53997">
        <ele>13.275596</ele>
        <time>2014-10-05T09:16:03Z</time>
      </trkpt>
      <trkpt lat="44.72087" lon="-0.54006">
        <ele>13.236409</ele>
        <time>2014-10-05T09:16:05Z</time>
      </trkpt>
      <trkpt lat="44.72077" lon="-0.54013">
        <ele>13.113994</ele>
        <time>2014-10-05T09:16:07Z</time>
      </trkpt>
      <trkpt lat="44.72071" lon="-0.54015">
        <ele>13.017494</ele>
        <time>2014-10-05T09:16:08Z</time>
      </trkpt>
      <trkpt lat="44.7206" lon="-0.54014">
        <ele>13</ele>
        <time>2014-10-05T09:16:10Z</time>
      </trkpt>
      <trkpt lat="44.72055" lon="-0.54012">
        <ele>13</ele>
        <time>2014-10-05T09:16:11Z</time>
      </trkpt>
      <trkpt lat="44.72033" lon="-0.53997">
        <ele>13</ele>
        <time>2014-10-05T09:16:15Z</time>
      </trkpt>
      <trkpt lat="44.72021" lon="-0.53992">
        <ele>13</ele>
        <time>2014-10-05T09:16:17Z</time>
      </trkpt>
      <trkpt lat="44.72015" lon="-0.53992">
        <ele>13</ele>
        <time>2014-10-05T09:16:18Z</time>
      </trkpt>
      <trkpt lat="44.7201" lon="-0.53994">
        <ele>13</ele>
        <time>2014-10-05T09:16:19Z</time>
      </trkpt>
      <trkpt lat="44.72005" lon="-0.53997">
        <ele>13</ele>
        <time>2014-10-05T09:16:20Z</time>
      </trkpt>
      <trkpt lat="44.71975" lon="-0.54031">
        <ele>13.210761</ele>
        <time>2014-10-05T09:16:27Z</time>
      </trkpt>
      <trkpt lat="44.71966" lon="-0.54037">
        <ele>13.460283</ele>
        <time>2014-10-05T09:16:29Z</time>
      </trkpt>
      <trkpt lat="44.71957" lon="-0.5404">
        <ele>13.645363</ele>
        <time>2014-10-05T09:16:31Z</time>
      </trkpt>
      <trkpt lat="44.71946" lon="-0.54039">
        <ele>13.816406</ele>
        <time>2014-10-05T09:16:33Z</time>
      </trkpt>
      <trkpt lat="44.7188" lon="-0.54006">
        <ele>14.727225</ele>
        <time>2014-10-05T09:16:46Z</time>
      </trkpt>
      <trkpt lat="44.71862" lon="-0.53994">
        <ele>15.926199</ele>
        <time>2014-10-05T09:16:50Z</time>
      </trkpt>
      <trkpt lat="44.71836" lon="-0.53979">
        <ele>17.84375</ele>
        <time>2014-10-05T09:16:57Z</time>
      </trkpt>
      <trkpt lat="44.71833" lon="-0.5398">
        <ele>18.055</ele>
        <time>2014-10-05T09:16:58Z</time>
      </trkpt>
      <trkpt lat="44.71822" lon="-0.53985">
        <ele>18.5825</ele>
        <time>2014-10-05T09:17:01Z</time>
      </trkpt>
      <trkpt lat="44.71819" lon="-0.53989">
        <ele>18.665001</ele>
        <time>2014-10-05T09:17:02Z</time>
      </trkpt>
      <trkpt lat="44.71752" lon="-0.54114">
        <ele>19.398125</ele>
        <time>2014-10-05T09:17:25Z</time>
      </trkpt>
      <trkpt lat="44.71709" lon="-0.54201">
        <ele>19.843596</ele>
        <time>2014-10-05T09:17:41Z</time>
      </trkpt>
      <trkpt lat="44.71689" lon="-0.54244">
        <ele>20.437113</ele>
        <time>2014-10-05T09:17:49Z</time>
      </trkpt>
      <trkpt lat="44.7165" lon="-0.54371">
        <ele>20.495001</ele>
        <time>2014-10-05T09:18:08Z</time>
      </trkpt>
      <trkpt lat="44.71637" lon="-0.544">
        <ele>20.470081</ele>
        <time>2014-10-05T09:18:13Z</time>
      </trkpt>
      <trkpt lat="44.71632" lon="-0.5441">
        <ele>20.426842</ele>
        <time>2014-10-05T09:18:15Z</time>
      </trkpt>
      <trkpt lat="44.71623" lon="-0.54435">
        <ele>20.029942</ele>
        <time>2014-10-05T09:18:19Z</time>
      </trkpt>
      <trkpt lat="44.7162" lon="-0.54439">
        <ele>19.995674</ele>
        <time>2014-10-05T09:18:20Z</time>
      </trkpt>
      <trkpt lat="44.71615" lon="-0.54442">
        <ele>20.035963</ele>
        <time>2014-10-05T09:18:21Z</time>
      </trkpt>
      <trkpt lat="44.7161" lon="-0.54442">
        <ele>20.12747</ele>
        <time>2014-10-05T09:18:22Z</time>
      </trkpt>
      <trkpt lat="44.71605" lon="-0.54441">
        <ele>20.370001</ele>
        <time>2014-10-05T09:18:23Z</time>
      </trkpt>
      <trkpt lat="44.716" lon="-0.54438">
        <ele>20.647501</ele>
        <time>2014-10-05T09:18:24Z</time>
      </trkpt>
      <trkpt lat="44.71592" lon="-0.54431">
        <ele>21.23</ele>
        <time>2014-10-05T09:18:26Z</time>
      </trkpt>
      <trkpt lat="44.71588" lon="-0.54429">
        <ele>21.481251</ele>
        <time>2014-10-05T09:18:27Z</time>
      </trkpt>
      <trkpt lat="44.71584" lon="-0.54429">
        <ele>21.67</ele>
        <time>2014-10-05T09:18:28Z</time>
      </trkpt>
      <trkpt lat="44.7158" lon="-0.54431">
        <ele>21.780001</ele>
        <time>2014-10-05T09:18:29Z</time>
      </trkpt>
      <trkpt lat="44.71572" lon="-0.54437">
        <ele>21.9175</ele>
        <time>2014-10-05T09:18:32Z</time>
      </trkpt>
      <trkpt lat="44.71531" lon="-0.54441">
        <ele>23.533751</ele>
        <time>2014-10-05T09:18:46Z</time>
      </trkpt>
      <trkpt lat="44.71498" lon="-0.5442">
        <ele>25.49284</ele>
        <time>2014-10-05T09:18:58Z</time>
      </trkpt>
      <trkpt lat="44.71458" lon="-0.54417">
        <ele>26.723751</ele>
        <time>2014-10-05T09:19:11Z</time>
      </trkpt>
      <trkpt lat="44.71414" lon="-0.54424">
        <ele>27.609797</ele>
        <time>2014-10-05T09:19:24Z</time>
      </trkpt>
      <trkpt lat="44.71353" lon="-0.54426">
        <ele>28.946249</ele>
        <time>2014-10-05T09:19:43Z</time>
      </trkpt>
      <trkpt lat="44.71338" lon="-0.54419">
        <ele>29.526661</ele>
        <time>2014-10-05T09:19:51Z</time>
      </trkpt>
      <trkpt lat="44.71275" lon="-0.54442">
        <ele>31.522816</ele>
        <time>2014-10-05T09:20:11Z</time>
      </trkpt>
      <trkpt lat="44.71281" lon="-0.54343">
        <ele>34.576874</ele>
        <time>2014-10-05T09:20:35Z</time>
      </trkpt>
      <trkpt lat="44.71279" lon="-0.54328">
        <ele>35.869999</ele>
        <time>2014-10-05T09:20:39Z</time>
      </trkpt>
      <trkpt lat="44.71253" lon="-0.54336">
        <ele>36.31625</ele>
        <time>2014-10-05T09:20:51Z</time>
      </trkpt>
      <trkpt lat="44.71245" lon="-0.54326">
        <ele>37.261875</ele>
        <time>2014-10-05T09:20:56Z</time>
      </trkpt>
      <trkpt lat="44.71239" lon="-0.54265">
        <ele>41.630001</ele>
        <time>2014-10-05T09:21:13Z</time>
      </trkpt>
      <trkpt lat="44.71235" lon="-0.54199">
        <ele>44.427383</ele>
        <time>2014-10-05T09:21:29Z</time>
      </trkpt>
      <trkpt lat="44.71237" lon="-0.54131">
        <ele>44.615322</ele>
        <time>2014-10-05T09:21:43Z</time>
      </trkpt>
      <trkpt lat="44.71238" lon="-0.54064">
        <ele>43.703751</ele>
        <time>2014-10-05T09:21:56Z</time>
      </trkpt>
      <trkpt lat="44.71232" lon="-0.53989">
        <ele>42.683125</ele>
        <time>2014-10-05T09:22:10Z</time>
      </trkpt>
      <trkpt lat="44.71231" lon="-0.53983">
        <ele>42.576252</ele>
        <time>2014-10-05T09:22:11Z</time>
      </trkpt>
      <trkpt lat="44.71226" lon="-0.53973">
        <ele>42.376251</ele>
        <time>2014-10-05T09:22:13Z</time>
      </trkpt>
      <trkpt lat="44.7122" lon="-0.53966">
        <ele>42.32</ele>
        <time>2014-10-05T09:22:15Z</time>
      </trkpt>
      <trkpt lat="44.71203" lon="-0.53959">
        <ele>42.334423</ele>
        <time>2014-10-05T09:22:21Z</time>
      </trkpt>
      <trkpt lat="44.71198" lon="-0.53955">
        <ele>42.283073</ele>
        <time>2014-10-05T09:22:34Z</time>
      </trkpt>
      <trkpt lat="44.7119" lon="-0.53963">
        <ele>42.546314</ele>
        <time>2014-10-05T09:23:53Z</time>
      </trkpt>
      <trkpt lat="44.71144" lon="-0.53983">
        <ele>43.646374</ele>
        <time>2014-10-05T09:24:05Z</time>
      </trkpt>
      <trkpt lat="44.71099" lon="-0.53981">
        <ele>44.625336</ele>
        <time>2014-10-05T09:24:16Z</time>
      </trkpt>
      <trkpt lat="44.71079" lon="-0.53978">
        <ele>44.993874</ele>
        <time>2014-10-05T09:24:20Z</time>
      </trkpt>
      <trkpt lat="44.71044" lon="-0.5396">
        <ele>44.71125</ele>
        <time>2014-10-05T09:24:28Z</time>
      </trkpt>
      <trkpt lat="44.71035" lon="-0.53953">
        <ele>44.641251</ele>
        <time>2014-10-05T09:24:30Z</time>
      </trkpt>
      <trkpt lat="44.71031" lon="-0.53948">
        <ele>44.564377</ele>
        <time>2014-10-05T09:24:31Z</time>
      </trkpt>
      <trkpt lat="44.71029" lon="-0.53942">
        <ele>44.466251</ele>
        <time>2014-10-05T09:24:32Z</time>
      </trkpt>
      <trkpt lat="44.71021" lon="-0.53905">
        <ele>43.891876</ele>
        <time>2014-10-05T09:24:37Z</time>
      </trkpt>
      <trkpt lat="44.71014" lon="-0.53892">
        <ele>43.697498</ele>
        <time>2014-10-05T09:24:39Z</time>
      </trkpt>
      <trkpt lat="44.7101" lon="-0.53888">
        <ele>43.625626</ele>
        <time>2014-10-05T09:24:40Z</time>
      </trkpt>
      <trkpt lat="44.71004" lon="-0.53884">
        <ele>43.574375</ele>
        <time>2014-10-05T09:24:41Z</time>
      </trkpt>
      <trkpt lat="44.70998" lon="-0.53882">
        <ele>43.544376</ele>
        <time>2014-10-05T09:24:42Z</time>
      </trkpt>
      <trkpt lat="44.70987" lon="-0.53882">
        <ele>43.400623</ele>
        <time>2014-10-05T09:24:44Z</time>
      </trkpt>
      <trkpt lat="44.70947" lon="-0.53891">
        <ele>42.696877</ele>
        <time>2014-10-05T09:24:51Z</time>
      </trkpt>
      <trkpt lat="44.70878" lon="-0.53889">
        <ele>41.19125</ele>
        <time>2014-10-05T09:25:03Z</time>
      </trkpt>
      <trkpt lat="44.70786" lon="-0.53878">
        <ele>38.048752</ele>
        <time>2014-10-05T09:25:16Z</time>
      </trkpt>
      <trkpt lat="44.70678" lon="-0.5386">
        <ele>34.25705</ele>
        <time>2014-10-05T09:25:31Z</time>
      </trkpt>
      <trkpt lat="44.70627" lon="-0.5385">
        <ele>32.870411</ele>
        <time>2014-10-05T09:25:39Z</time>
      </trkpt>
      <trkpt lat="44.70571" lon="-0.53843">
        <ele>37.413273</ele>
        <time>2014-10-05T09:25:51Z</time>
      </trkpt>
      <trkpt lat="44.70526" lon="-0.53833">
        <ele>41.02375</ele>
        <time>2014-10-05T09:26:06Z</time>
      </trkpt>
      <trkpt lat="44.70438" lon="-0.53818">
        <ele>43.393295</ele>
        <time>2014-10-05T09:26:28Z</time>
      </trkpt>
      <trkpt lat="44.7039" lon="-0.53809">
        <ele>45.048126</ele>
        <time>2014-10-05T09:26:42Z</time>
      </trkpt>
      <trkpt lat="44.70352" lon="-0.53773">
        <ele>46.983124</ele>
        <time>2014-10-05T09:26:58Z</time>
      </trkpt>
      <trkpt lat="44.70347" lon="-0.53768">
        <ele>47.166874</ele>
        <time>2014-10-05T09:27:09Z</time>
      </trkpt>
      <trkpt lat="44.70348" lon="-0.53767">
        <ele>47.162498</ele>
        <time>2014-10-05T09:27:30Z</time>
      </trkpt>
      <trkpt lat="44.70298" lon="-0.53821">
        <ele>47.182499</ele>
        <time>2014-10-05T09:27:47Z</time>
      </trkpt>
      <trkpt lat="44.70177" lon="-0.53961">
        <ele>46.585999</ele>
        <time>2014-10-05T09:28:15Z</time>
      </trkpt>
      <trkpt lat="44.70131" lon="-0.54015">
        <ele>47.413052</ele>
        <time>2014-10-05T09:28:25Z</time>
      </trkpt>
      <trkpt lat="44.7012" lon="-0.54031">
        <ele>47.74247</ele>
        <time>2014-10-05T09:28:28Z</time>
      </trkpt>
      <trkpt lat="44.70086" lon="-0.54116">
        <ele>47.999374</ele>
        <time>2014-10-05T09:28:42Z</time>
      </trkpt>
      <trkpt lat="44.7006" lon="-0.54198">
        <ele>47.137062</ele>
        <time>2014-10-05T09:28:55Z</time>
      </trkpt>
      <trkpt lat="44.70052" lon="-0.54228">
        <ele>47.222775</ele>
        <time>2014-10-05T09:29:00Z</time>
      </trkpt>
      <trkpt lat="44.70027" lon="-0.54301">
        <ele>47.98</ele>
        <time>2014-10-05T09:29:13Z</time>
      </trkpt>
      <trkpt lat="44.69972" lon="-0.54451">
        <ele>49.395</ele>
        <time>2014-10-05T09:29:45Z</time>
      </trkpt>
      <trkpt lat="44.69971" lon="-0.54468">
        <ele>49.663124</ele>
        <time>2014-10-05T09:29:50Z</time>
      </trkpt>
      <trkpt lat="44.69947" lon="-0.54536">
        <ele>50</ele>
        <time>2014-10-05T09:30:03Z</time>
      </trkpt>
      <trkpt lat="44.69897" lon="-0.54663">
        <ele>51</ele>
        <time>2014-10-05T09:30:32Z</time>
      </trkpt>
      <trkpt lat="44.69886" lon="-0.54705">
        <ele>51</ele>
        <time>2014-10-05T09:30:44Z</time>
      </trkpt>
      <trkpt lat="44.69886" lon="-0.54703">
        <ele>51</ele>
        <time>2014-10-05T09:31:35Z</time>
      </trkpt>
      <trkpt lat="44.69882" lon="-0.54743">
        <ele>50.921001</ele>
        <time>2014-10-05T09:31:45Z</time>
      </trkpt>
      <trkpt lat="44.69876" lon="-0.54825">
        <ele>50.2925</ele>
        <time>2014-10-05T09:31:59Z</time>
      </trkpt>
      <trkpt lat="44.69865" lon="-0.54944">
        <ele>50</ele>
        <time>2014-10-05T09:32:21Z</time>
      </trkpt>
      <trkpt lat="44.69865" lon="-0.54952">
        <ele>50</ele>
        <time>2014-10-05T09:32:25Z</time>
      </trkpt>
      <trkpt lat="44.69863" lon="-0.54986">
        <ele>50</ele>
        <time>2014-10-05T09:32:45Z</time>
      </trkpt>
      <trkpt lat="44.69863" lon="-0.54988">
        <ele>50</ele>
        <time>2014-10-05T09:33:12Z</time>
      </trkpt>
      <trkpt lat="44.69858" lon="-0.54996">
        <ele>50</ele>
        <time>2014-10-05T09:33:16Z</time>
      </trkpt>
      <trkpt lat="44.69815" lon="-0.55018">
        <ele>50.537498</ele>
        <time>2014-10-05T09:33:28Z</time>
      </trkpt>
      <trkpt lat="44.69759" lon="-0.55032">
        <ele>51</ele>
        <time>2014-10-05T09:33:39Z</time>
      </trkpt>
      <trkpt lat="44.69726" lon="-0.55033">
        <ele>51.422024</ele>
        <time>2014-10-05T09:33:46Z</time>
      </trkpt>
      <trkpt lat="44.69713" lon="-0.55035">
        <ele>51.687298</ele>
        <time>2014-10-05T09:33:49Z</time>
      </trkpt>
      <trkpt lat="44.6971" lon="-0.55038">
        <ele>51.789436</ele>
        <time>2014-10-05T09:33:50Z</time>
      </trkpt>
      <trkpt lat="44.69708" lon="-0.55043">
        <ele>51.897499</ele>
        <time>2014-10-05T09:33:51Z</time>
      </trkpt>
      <trkpt lat="44.69706" lon="-0.55072">
        <ele>51.935001</ele>
        <time>2014-10-05T09:33:55Z</time>
      </trkpt>
      <trkpt lat="44.69713" lon="-0.55185">
        <ele>52.179276</ele>
        <time>2014-10-05T09:34:14Z</time>
      </trkpt>
      <trkpt lat="44.69714" lon="-0.55223">
        <ele>52.550201</ele>
        <time>2014-10-05T09:34:20Z</time>
      </trkpt>
      <trkpt lat="44.69715" lon="-0.55229">
        <ele>52.598503</ele>
        <time>2014-10-05T09:34:21Z</time>
      </trkpt>
      <trkpt lat="44.69718" lon="-0.55294">
        <ele>52.98518</ele>
        <time>2014-10-05T09:34:30Z</time>
      </trkpt>
      <trkpt lat="44.69714" lon="-0.55338">
        <ele>53</ele>
        <time>2014-10-05T09:34:38Z</time>
      </trkpt>
      <trkpt lat="44.6971" lon="-0.55362">
        <ele>53.054375</ele>
        <time>2014-10-05T09:34:42Z</time>
      </trkpt>
      <trkpt lat="44.69709" lon="-0.55385">
        <ele>53.416874</ele>
        <time>2014-10-05T09:34:46Z</time>
      </trkpt>
      <trkpt lat="44.69701" lon="-0.55437">
        <ele>54</ele>
        <time>2014-10-05T09:34:55Z</time>
      </trkpt>
      <trkpt lat="44.69697" lon="-0.55468">
        <ele>54</ele>
        <time>2014-10-05T09:35:00Z</time>
      </trkpt>
      <trkpt lat="44.69694" lon="-0.5548">
        <ele>54</ele>
        <time>2014-10-05T09:35:02Z</time>
      </trkpt>
      <trkpt lat="44.6969" lon="-0.55491">
        <ele>54</ele>
        <time>2014-10-05T09:35:04Z</time>
      </trkpt>
      <trkpt lat="44.69687" lon="-0.55497">
        <ele>54</ele>
        <time>2014-10-05T09:35:05Z</time>
      </trkpt>
      <trkpt lat="44.6966" lon="-0.55533">
        <ele>54</ele>
        <time>2014-10-05T09:35:17Z</time>
      </trkpt>
      <trkpt lat="44.69659" lon="-0.55534">
        <ele>54</ele>
        <time>2014-10-05T09:35:25Z</time>
      </trkpt>
      <trkpt lat="44.69608" lon="-0.55471">
        <ele>53.115677</ele>
        <time>2014-10-05T09:35:41Z</time>
      </trkpt>
      <trkpt lat="44.69584" lon="-0.55432">
        <ele>53</ele>
        <time>2014-10-05T09:35:48Z</time>
      </trkpt>
      <trkpt lat="44.69561" lon="-0.55407">
        <ele>53</ele>
        <time>2014-10-05T09:35:55Z</time>
      </trkpt>
      <trkpt lat="44.6955" lon="-0.55389">
        <ele>53</ele>
        <time>2014-10-05T09:35:59Z</time>
      </trkpt>
      <trkpt lat="44.6948" lon="-0.5526">
        <ele>53</ele>
        <time>2014-10-05T09:36:21Z</time>
      </trkpt>
      <trkpt lat="44.69464" lon="-0.55228">
        <ele>53</ele>
        <time>2014-10-05T09:36:26Z</time>
      </trkpt>
      <trkpt lat="44.69446" lon="-0.55194">
        <ele>53</ele>
        <time>2014-10-05T09:36:35Z</time>
      </trkpt>
      <trkpt lat="44.69438" lon="-0.55174">
        <ele>53</ele>
        <time>2014-10-05T09:36:45Z</time>
      </trkpt>
      <trkpt lat="44.69423" lon="-0.55162">
        <ele>53</ele>
        <time>2014-10-05T09:36:50Z</time>
      </trkpt>
      <trkpt lat="44.69296" lon="-0.55141">
        <ele>53</ele>
        <time>2014-10-05T09:37:18Z</time>
      </trkpt>
      <trkpt lat="44.6915" lon="-0.55106">
        <ele>52.854031</ele>
        <time>2014-10-05T09:37:51Z</time>
      </trkpt>
      <trkpt lat="44.69129" lon="-0.55101">
        <ele>52.549969</ele>
        <time>2014-10-05T09:37:56Z</time>
      </trkpt>
      <trkpt lat="44.69063" lon="-0.55088">
        <ele>52.241249</ele>
        <time>2014-10-05T09:38:11Z</time>
      </trkpt>
      <trkpt lat="44.69052" lon="-0.55084">
        <ele>52.19125</ele>
        <time>2014-10-05T09:38:13Z</time>
      </trkpt>
      <trkpt lat="44.68986" lon="-0.55073">
        <ele>52.004623</ele>
        <time>2014-10-05T09:38:27Z</time>
      </trkpt>
    </trkseg>
  </trk>
</gpx>